<?xml version='1.0' encoding='utf-8'?>
<gpx xmlns="http://www.topografix.com/GPX/1/1" creator="HOLUX ezTour Plus" version="1.1">
<metadata>
<link href="http://www.holux.com"><text>HOLUX Technology, Inc.</text></link>
<time>2012-08-01T18:52:18Z</time></metadata>
<trk>
<name>raw9</name>
<trkseg>
<trkpt lat="63.831604004" lon="-19.205492020">
<ele>560.6</ele>
<time>2012-07-26T10:39:34Z</time>
<speed>0.140000</speed>
<extensions>
<speed>0.1</speed>
<temp>0.00</temp>
<bpm>0</bpm>
<rpm>0.00</rpm>
</extensions>
</trkpt>
<trkpt lat="63.831867218" lon="-19.205268860">
<ele>559.8</ele>
<time>2012-07-26T10:49:24Z</time>
<speed>1.300000</speed>
<extensions>
<speed>1.3</speed>
<temp>0.00</temp>
<bpm>0</bpm>
<rpm>0.00</rpm>
</extensions>
</trkpt>
<trkpt lat="63.831939697" lon="-19.206300735">
<ele>559.3</ele>
<time>2012-07-26T10:50:44Z</time>
<speed>0.440000</speed>
<extensions>
<speed>0.4</speed>
<temp>0.00</temp>
<bpm>0</bpm>
<rpm>0.00</rpm>
</extensions>
</trkpt>
<trkpt lat="63.831932068" lon="-19.205282211">
<ele>559.4</ele>
<time>2012-07-26T10:51:24Z</time>
<speed>1.420000</speed>
<extensions>
<speed>1.4</speed>
<temp>0.00</temp>
<bpm>0</bpm>
<rpm>0.00</rpm>
</extensions>
</trkpt>
<trkpt lat="63.831726074" lon="-19.205385208">
<ele>560.4</ele>
<time>2012-07-26T10:51:59Z</time>
<speed>0.230000</speed>
<extensions>
<speed>0.2</speed>
<temp>0.00</temp>
<bpm>0</bpm>
<rpm>0.00</rpm>
</extensions>
</trkpt>
<trkpt lat="63.831859589" lon="-19.204641342">
<ele>559.4</ele>
<time>2012-07-26T10:54:49Z</time>
<speed>0.180000</speed>
<extensions>
<speed>0.2</speed>
<temp>0.00</temp>
<bpm>0</bpm>
<rpm>0.00</rpm>
</extensions>
</trkpt>
<trkpt lat="63.831733704" lon="-19.204545975">
<ele>559.5</ele>
<time>2012-07-26T10:55:14Z</time>
<speed>0.560000</speed>
<extensions>
<speed>0.6</speed>
<temp>0.00</temp>
<bpm>0</bpm>
<rpm>0.00</rpm>
</extensions>
</trkpt>
<trkpt lat="63.831680298" lon="-19.205183029">
<ele>560.2</ele>
<time>2012-07-26T10:56:29Z</time>
<speed>1.540000</speed>
<extensions>
<speed>1.5</speed>
<temp>0.00</temp>
<bpm>0</bpm>
<rpm>0.00</rpm>
</extensions>
</trkpt>
<trkpt lat="63.831790924" lon="-19.205425262">
<ele>560.3</ele>
<time>2012-07-26T10:59:04Z</time>
<speed>0.130000</speed>
<extensions>
<speed>0.1</speed>
<temp>0.00</temp>
<bpm>0</bpm>
<rpm>0.00</rpm>
</extensions>
</trkpt>
<trkpt lat="63.831161499" lon="-19.206256866">
<ele>561.3</ele>
<time>2012-07-26T11:01:04Z</time>
<speed>0.710000</speed>
<extensions>
<speed>0.7</speed>
<temp>0.00</temp>
<bpm>0</bpm>
<rpm>0.00</rpm>
</extensions>
</trkpt>
<trkpt lat="63.828567505" lon="-19.207590103">
<ele>567.0</ele>
<time>2012-07-26T11:04:34Z</time>
<speed>0.190000</speed>
<extensions>
<speed>0.2</speed>
<temp>0.00</temp>
<bpm>0</bpm>
<rpm>0.00</rpm>
</extensions>
</trkpt>
<trkpt lat="63.828598022" lon="-19.207311630">
<ele>567.8</ele>
<time>2012-07-26T11:08:14Z</time>
<speed>0.020000</speed>
<extensions>
<speed>0.0</speed>
<temp>0.00</temp>
<bpm>0</bpm>
<rpm>0.00</rpm>
</extensions>
</trkpt>
<trkpt lat="63.828601837" lon="-19.207584381">
<ele>566.7</ele>
<time>2012-07-26T11:14:39Z</time>
<speed>0.030000</speed>
<extensions>
<speed>0.0</speed>
<temp>0.00</temp>
<bpm>0</bpm>
<rpm>0.00</rpm>
</extensions>
</trkpt>
<trkpt lat="63.828540802" lon="-19.207336426">
<ele>568.9</ele>
<time>2012-07-26T11:17:54Z</time>
<speed>0.040000</speed>
<extensions>
<speed>0.0</speed>
<temp>0.00</temp>
<bpm>0</bpm>
<rpm>0.00</rpm>
</extensions>
</trkpt>
<trkpt lat="63.828659058" lon="-19.207489014">
<ele>566.2</ele>
<time>2012-07-26T11:35:39Z</time>
<extensions>
<speed>0.0</speed>
<temp>0.00</temp>
<bpm>0</bpm>
<rpm>0.00</rpm>
</extensions>
</trkpt>
<trkpt lat="63.828247070" lon="-19.208854675">
<ele>565.3</ele>
<time>2012-07-26T11:53:24Z</time>
<speed>2.480000</speed>
<extensions>
<speed>2.5</speed>
<temp>0.00</temp>
<bpm>0</bpm>
<rpm>0.00</rpm>
</extensions>
</trkpt>
<trkpt lat="63.827785492" lon="-19.209461212">
<ele>565.2</ele>
<time>2012-07-26T11:53:49Z</time>
<speed>2.700000</speed>
<extensions>
<speed>2.7</speed>
<temp>0.00</temp>
<bpm>0</bpm>
<rpm>0.00</rpm>
</extensions>
</trkpt>
<trkpt lat="63.827270508" lon="-19.210952759">
<ele>563.0</ele>
<time>2012-07-26T11:54:54Z</time>
<speed>0.750000</speed>
<extensions>
<speed>0.8</speed>
<temp>0.00</temp>
<bpm>0</bpm>
<rpm>0.00</rpm>
</extensions>
</trkpt>
<trkpt lat="63.827526093" lon="-19.210538864">
<ele>563.7</ele>
<time>2012-07-26T11:55:09Z</time>
<speed>3.320000</speed>
<extensions>
<speed>3.3</speed>
<temp>0.00</temp>
<bpm>0</bpm>
<rpm>0.00</rpm>
</extensions>
</trkpt>
<trkpt lat="63.827793121" lon="-19.209564209">
<ele>565.2</ele>
<time>2012-07-26T11:55:29Z</time>
<speed>0.370000</speed>
<extensions>
<speed>0.4</speed>
<temp>0.00</temp>
<bpm>0</bpm>
<rpm>0.00</rpm>
</extensions>
</trkpt>
<trkpt lat="63.826755524" lon="-19.212072372">
<ele>562.8</ele>
<time>2012-07-26T11:56:19Z</time>
<speed>4.400000</speed>
<extensions>
<speed>4.4</speed>
<temp>0.00</temp>
<bpm>0</bpm>
<rpm>0.00</rpm>
</extensions>
</trkpt>
<trkpt lat="63.825244904" lon="-19.214157104">
<ele>562.7</ele>
<time>2012-07-26T12:04:24Z</time>
<speed>3.540000</speed>
<extensions>
<speed>3.5</speed>
<temp>0.00</temp>
<bpm>0</bpm>
<rpm>0.00</rpm>
</extensions>
</trkpt>
<trkpt lat="63.824314117" lon="-19.217912674">
<ele>559.9</ele>
<time>2012-07-26T12:05:19Z</time>
<speed>3.870000</speed>
<extensions>
<speed>3.9</speed>
<temp>0.00</temp>
<bpm>0</bpm>
<rpm>0.00</rpm>
</extensions>
</trkpt>
<trkpt lat="63.823257446" lon="-19.219154358">
<ele>559.6</ele>
<time>2012-07-26T12:05:49Z</time>
<speed>3.540000</speed>
<extensions>
<speed>3.5</speed>
<temp>0.00</temp>
<bpm>0</bpm>
<rpm>0.00</rpm>
</extensions>
</trkpt>
<trkpt lat="63.822830200" lon="-19.219251633">
<ele>558.8</ele>
<time>2012-07-26T12:06:09Z</time>
<speed>1.490000</speed>
<extensions>
<speed>1.5</speed>
<temp>0.00</temp>
<bpm>0</bpm>
<rpm>0.00</rpm>
</extensions>
</trkpt>
<trkpt lat="63.823043823" lon="-19.219978333">
<ele>558.6</ele>
<time>2012-07-26T12:07:24Z</time>
<speed>0.050000</speed>
<extensions>
<speed>0.1</speed>
<temp>0.00</temp>
<bpm>0</bpm>
<rpm>0.00</rpm>
</extensions>
</trkpt>
<trkpt lat="63.822868347" lon="-19.220424652">
<ele>558.8</ele>
<time>2012-07-26T12:10:19Z</time>
<speed>0.130000</speed>
<extensions>
<speed>0.1</speed>
<temp>0.00</temp>
<bpm>0</bpm>
<rpm>0.00</rpm>
</extensions>
</trkpt>
<trkpt lat="63.822429657" lon="-19.219907761">
<ele>559.7</ele>
<time>2012-07-26T12:19:44Z</time>
<speed>2.430000</speed>
<extensions>
<speed>2.4</speed>
<temp>0.00</temp>
<bpm>0</bpm>
<rpm>0.00</rpm>
</extensions>
</trkpt>
<trkpt lat="63.819839478" lon="-19.231479645">
<ele>560.6</ele>
<time>2012-07-26T12:22:09Z</time>
<speed>5.400000</speed>
<extensions>
<speed>5.4</speed>
<temp>0.00</temp>
<bpm>0</bpm>
<rpm>0.00</rpm>
</extensions>
</trkpt>
<trkpt lat="63.819259644" lon="-19.234771729">
<ele>559.2</ele>
<time>2012-07-26T12:22:49Z</time>
<speed>4.320000</speed>
<extensions>
<speed>4.3</speed>
<temp>0.00</temp>
<bpm>0</bpm>
<rpm>0.00</rpm>
</extensions>
</trkpt>
<trkpt lat="63.818519592" lon="-19.237348557">
<ele>557.7</ele>
<time>2012-07-26T12:23:19Z</time>
<speed>6.020000</speed>
<extensions>
<speed>6.0</speed>
<temp>0.00</temp>
<bpm>0</bpm>
<rpm>0.00</rpm>
</extensions>
</trkpt>
<trkpt lat="63.817317963" lon="-19.243227005">
<ele>555.8</ele>
<time>2012-07-26T12:24:14Z</time>
<speed>5.360000</speed>
<extensions>
<speed>5.4</speed>
<temp>0.00</temp>
<bpm>0</bpm>
<rpm>0.00</rpm>
</extensions>
</trkpt>
<trkpt lat="63.814151764" lon="-19.256273270">
<ele>547.7</ele>
<time>2012-07-26T12:28:29Z</time>
<speed>5.140000</speed>
<extensions>
<speed>5.1</speed>
<temp>0.00</temp>
<bpm>0</bpm>
<rpm>0.00</rpm>
</extensions>
</trkpt>
<trkpt lat="63.813716888" lon="-19.259019852">
<ele>546.7</ele>
<time>2012-07-26T12:28:59Z</time>
<speed>5.080000</speed>
<extensions>
<speed>5.1</speed>
<temp>0.00</temp>
<bpm>0</bpm>
<rpm>0.00</rpm>
</extensions>
</trkpt>
<trkpt lat="63.813533783" lon="-19.262796402">
<ele>546.6</ele>
<time>2012-07-26T12:29:54Z</time>
<speed>4.630000</speed>
<extensions>
<speed>4.6</speed>
<temp>0.00</temp>
<bpm>0</bpm>
<rpm>0.00</rpm>
</extensions>
</trkpt>
<trkpt lat="63.810878754" lon="-19.273052216">
<ele>550.8</ele>
<time>2012-07-26T12:32:09Z</time>
<speed>3.350000</speed>
<extensions>
<speed>3.4</speed>
<temp>0.00</temp>
<bpm>0</bpm>
<rpm>0.00</rpm>
</extensions>
</trkpt>
<trkpt lat="63.810310364" lon="-19.278064728">
<ele>546.5</ele>
<time>2012-07-26T12:33:14Z</time>
<speed>6.070000</speed>
<extensions>
<speed>6.1</speed>
<temp>0.00</temp>
<bpm>0</bpm>
<rpm>0.00</rpm>
</extensions>
</trkpt>
<trkpt lat="63.809917450" lon="-19.279821396">
<ele>541.5</ele>
<time>2012-07-26T12:33:29Z</time>
<speed>5.470000</speed>
<extensions>
<speed>5.5</speed>
<temp>0.00</temp>
<bpm>0</bpm>
<rpm>0.00</rpm>
</extensions>
</trkpt>
<trkpt lat="63.809680939" lon="-19.280023575">
<ele>538.6</ele>
<time>2012-07-26T12:33:34Z</time>
<speed>5.940000</speed>
<extensions>
<speed>5.9</speed>
<temp>0.00</temp>
<bpm>0</bpm>
<rpm>0.00</rpm>
</extensions>
</trkpt>
<trkpt lat="63.809391022" lon="-19.279800415">
<ele>535.4</ele>
<time>2012-07-26T12:33:39Z</time>
<speed>7.430000</speed>
<extensions>
<speed>7.4</speed>
<temp>0.00</temp>
<bpm>0</bpm>
<rpm>0.00</rpm>
</extensions>
</trkpt>
<trkpt lat="63.809135437" lon="-19.279132843">
<ele>533.8</ele>
<time>2012-07-26T12:33:44Z</time>
<speed>9.010000</speed>
<extensions>
<speed>9.0</speed>
<temp>0.00</temp>
<bpm>0</bpm>
<rpm>0.00</rpm>
</extensions>
</trkpt>
<trkpt lat="63.808822632" lon="-19.277210236">
<ele>534.0</ele>
<time>2012-07-26T12:34:04Z</time>
<speed>2.380000</speed>
<extensions>
<speed>2.4</speed>
<temp>0.00</temp>
<bpm>0</bpm>
<rpm>0.00</rpm>
</extensions>
</trkpt>
<trkpt lat="63.806884766" lon="-19.275962830">
<ele>534.4</ele>
<time>2012-07-26T12:36:04Z</time>
<speed>3.200000</speed>
<extensions>
<speed>3.2</speed>
<temp>0.00</temp>
<bpm>0</bpm>
<rpm>0.00</rpm>
</extensions>
</trkpt>
<trkpt lat="63.806438446" lon="-19.275110245">
<ele>535.2</ele>
<time>2012-07-26T12:36:34Z</time>
<speed>1.360000</speed>
<extensions>
<speed>1.4</speed>
<temp>0.00</temp>
<bpm>0</bpm>
<rpm>0.00</rpm>
</extensions>
</trkpt>
<trkpt lat="63.805847168" lon="-19.277921677">
<ele>532.6</ele>
<time>2012-07-26T12:39:44Z</time>
<speed>0.940000</speed>
<extensions>
<speed>0.9</speed>
<temp>0.00</temp>
<bpm>0</bpm>
<rpm>0.00</rpm>
</extensions>
</trkpt>
<trkpt lat="63.804676056" lon="-19.279321671">
<ele>535.4</ele>
<time>2012-07-26T12:42:19Z</time>
<speed>3.340000</speed>
<extensions>
<speed>3.3</speed>
<temp>0.00</temp>
<bpm>0</bpm>
<rpm>0.00</rpm>
</extensions>
</trkpt>
<trkpt lat="63.804084778" lon="-19.280723572">
<ele>538.4</ele>
<time>2012-07-26T12:42:54Z</time>
<speed>1.190000</speed>
<extensions>
<speed>1.2</speed>
<temp>0.00</temp>
<bpm>0</bpm>
<rpm>0.00</rpm>
</extensions>
</trkpt>
<trkpt lat="63.803436279" lon="-19.281669617">
<ele>541.7</ele>
<time>2012-07-26T12:47:14Z</time>
<speed>0.470000</speed>
<extensions>
<speed>0.5</speed>
<temp>0.00</temp>
<bpm>0</bpm>
<rpm>0.00</rpm>
</extensions>
</trkpt>
<trkpt lat="63.803253174" lon="-19.289510727">
<ele>541.7</ele>
<time>2012-07-26T12:48:54Z</time>
<speed>2.180000</speed>
<extensions>
<speed>2.2</speed>
<temp>0.00</temp>
<bpm>0</bpm>
<rpm>0.00</rpm>
</extensions>
</trkpt>
<trkpt lat="63.802734375" lon="-19.291025162">
<ele>549.3</ele>
<time>2012-07-26T12:49:54Z</time>
<speed>1.790000</speed>
<extensions>
<speed>1.8</speed>
<temp>0.00</temp>
<bpm>0</bpm>
<rpm>0.00</rpm>
</extensions>
</trkpt>
<trkpt lat="63.802566528" lon="-19.293556213">
<ele>549.8</ele>
<time>2012-07-26T12:51:29Z</time>
<speed>4.010000</speed>
<extensions>
<speed>4.0</speed>
<temp>0.00</temp>
<bpm>0</bpm>
<rpm>0.00</rpm>
</extensions>
</trkpt>
<trkpt lat="63.801918030" lon="-19.296630859">
<ele>548.2</ele>
<time>2012-07-26T12:52:09Z</time>
<speed>4.090000</speed>
<extensions>
<speed>4.1</speed>
<temp>0.00</temp>
<bpm>0</bpm>
<rpm>0.00</rpm>
</extensions>
</trkpt>
<trkpt lat="63.801643372" lon="-19.298974991">
<ele>546.6</ele>
<time>2012-07-26T12:52:39Z</time>
<speed>3.680000</speed>
<extensions>
<speed>3.7</speed>
<temp>0.00</temp>
<bpm>0</bpm>
<rpm>0.00</rpm>
</extensions>
</trkpt>
<trkpt lat="63.801757813" lon="-19.300106049">
<ele>546.7</ele>
<time>2012-07-26T12:52:54Z</time>
<speed>4.180000</speed>
<extensions>
<speed>4.2</speed>
<temp>0.00</temp>
<bpm>0</bpm>
<rpm>0.00</rpm>
</extensions>
</trkpt>
<trkpt lat="63.802120209" lon="-19.301137924">
<ele>544.4</ele>
<time>2012-07-26T12:53:09Z</time>
<speed>4.500000</speed>
<extensions>
<speed>4.5</speed>
<temp>0.00</temp>
<bpm>0</bpm>
<rpm>0.00</rpm>
</extensions>
</trkpt>
<trkpt lat="63.803466797" lon="-19.303514481">
<ele>542.7</ele>
<time>2012-07-26T12:54:04Z</time>
<speed>1.730000</speed>
<extensions>
<speed>1.7</speed>
<temp>0.00</temp>
<bpm>0</bpm>
<rpm>0.00</rpm>
</extensions>
</trkpt>
<trkpt lat="63.803752899" lon="-19.305034637">
<ele>542.9</ele>
<time>2012-07-26T12:54:34Z</time>
<speed>3.350000</speed>
<extensions>
<speed>3.4</speed>
<temp>0.00</temp>
<bpm>0</bpm>
<rpm>0.00</rpm>
</extensions>
</trkpt>
<trkpt lat="63.803741455" lon="-19.306726456">
<ele>541.8</ele>
<time>2012-07-26T12:54:59Z</time>
<speed>3.780000</speed>
<extensions>
<speed>3.8</speed>
<temp>0.00</temp>
<bpm>0</bpm>
<rpm>0.00</rpm>
</extensions>
</trkpt>
<trkpt lat="63.801815033" lon="-19.316301346">
<ele>537.7</ele>
<time>2012-07-26T12:57:19Z</time>
<speed>3.910000</speed>
<extensions>
<speed>3.9</speed>
<temp>0.00</temp>
<bpm>0</bpm>
<rpm>0.00</rpm>
</extensions>
</trkpt>
<trkpt lat="63.801246643" lon="-19.319906235">
<ele>537.4</ele>
<time>2012-07-26T12:58:09Z</time>
<speed>3.710000</speed>
<extensions>
<speed>3.7</speed>
<temp>0.00</temp>
<bpm>0</bpm>
<rpm>0.00</rpm>
</extensions>
</trkpt>
<trkpt lat="63.801044464" lon="-19.322216034">
<ele>537.4</ele>
<time>2012-07-26T12:58:44Z</time>
<speed>2.390000</speed>
<extensions>
<speed>2.4</speed>
<temp>0.00</temp>
<bpm>0</bpm>
<rpm>0.00</rpm>
</extensions>
</trkpt>
<trkpt lat="63.800590515" lon="-19.323926926">
<ele>535.9</ele>
<time>2012-07-26T12:59:19Z</time>
<speed>3.620000</speed>
<extensions>
<speed>3.6</speed>
<temp>0.00</temp>
<bpm>0</bpm>
<rpm>0.00</rpm>
</extensions>
</trkpt>
<trkpt lat="63.798553467" lon="-19.338499069">
<ele>530.0</ele>
<time>2012-07-26T13:04:19Z</time>
<speed>0.240000</speed>
<extensions>
<speed>0.2</speed>
<temp>0.00</temp>
<bpm>0</bpm>
<rpm>0.00</rpm>
</extensions>
</trkpt>
<trkpt lat="63.798210144" lon="-19.342542648">
<ele>531.6</ele>
<time>2012-07-26T13:05:44Z</time>
<speed>1.450000</speed>
<extensions>
<speed>1.4</speed>
<temp>0.00</temp>
<bpm>0</bpm>
<rpm>0.00</rpm>
</extensions>
</trkpt>
<trkpt lat="63.799747467" lon="-19.349685669">
<ele>527.3</ele>
<time>2012-07-26T13:07:29Z</time>
<speed>6.770000</speed>
<extensions>
<speed>6.8</speed>
<temp>0.00</temp>
<bpm>0</bpm>
<rpm>0.00</rpm>
</extensions>
</trkpt>
<trkpt lat="63.799804688" lon="-19.350339890">
<ele>525.9</ele>
<time>2012-07-26T13:07:34Z</time>
<speed>6.350000</speed>
<extensions>
<speed>6.4</speed>
<temp>0.00</temp>
<bpm>0</bpm>
<rpm>0.00</rpm>
</extensions>
</trkpt>
<trkpt lat="63.799556732" lon="-19.352476120">
<ele>520.6</ele>
<time>2012-07-26T13:07:59Z</time>
<speed>3.630000</speed>
<extensions>
<speed>3.6</speed>
<temp>0.00</temp>
<bpm>0</bpm>
<rpm>0.00</rpm>
</extensions>
</trkpt>
<trkpt lat="63.800281525" lon="-19.355270386">
<ele>521.6</ele>
<time>2012-07-26T13:08:54Z</time>
<speed>3.090000</speed>
<extensions>
<speed>3.1</speed>
<temp>0.00</temp>
<bpm>0</bpm>
<rpm>0.00</rpm>
</extensions>
</trkpt>
<trkpt lat="63.800270081" lon="-19.356363297">
<ele>522.7</ele>
<time>2012-07-26T13:09:14Z</time>
<speed>2.080000</speed>
<extensions>
<speed>2.1</speed>
<temp>0.00</temp>
<bpm>0</bpm>
<rpm>0.00</rpm>
</extensions>
</trkpt>
<trkpt lat="63.800025940" lon="-19.357492447">
<ele>522.0</ele>
<time>2012-07-26T13:09:34Z</time>
<speed>2.520000</speed>
<extensions>
<speed>2.5</speed>
<temp>0.00</temp>
<bpm>0</bpm>
<rpm>0.00</rpm>
</extensions>
</trkpt>
<trkpt lat="63.800327301" lon="-19.359306335">
<ele>520.9</ele>
<time>2012-07-26T13:10:19Z</time>
<speed>3.130000</speed>
<extensions>
<speed>3.1</speed>
<temp>0.00</temp>
<bpm>0</bpm>
<rpm>0.00</rpm>
</extensions>
</trkpt>
<trkpt lat="63.800025940" lon="-19.361251831">
<ele>520.6</ele>
<time>2012-07-26T13:10:49Z</time>
<speed>3.510000</speed>
<extensions>
<speed>3.5</speed>
<temp>0.00</temp>
<bpm>0</bpm>
<rpm>0.00</rpm>
</extensions>
</trkpt>
<trkpt lat="63.799602509" lon="-19.366214752">
<ele>519.0</ele>
<time>2012-07-26T13:12:29Z</time>
<speed>4.690000</speed>
<extensions>
<speed>4.7</speed>
<temp>0.00</temp>
<bpm>0</bpm>
<rpm>0.00</rpm>
</extensions>
</trkpt>
<trkpt lat="63.798767090" lon="-19.369194031">
<ele>517.3</ele>
<time>2012-07-26T13:13:14Z</time>
<speed>3.250000</speed>
<extensions>
<speed>3.2</speed>
<temp>0.00</temp>
<bpm>0</bpm>
<rpm>0.00</rpm>
</extensions>
</trkpt>
<trkpt lat="63.796363831" lon="-19.375246048">
<ele>512.0</ele>
<time>2012-07-26T13:14:49Z</time>
<speed>4.080000</speed>
<extensions>
<speed>4.1</speed>
<temp>0.00</temp>
<bpm>0</bpm>
<rpm>0.00</rpm>
</extensions>
</trkpt>
<trkpt lat="63.796348572" lon="-19.376708984">
<ele>513.0</ele>
<time>2012-07-26T13:15:19Z</time>
<speed>2.620000</speed>
<extensions>
<speed>2.6</speed>
<temp>0.00</temp>
<bpm>0</bpm>
<rpm>0.00</rpm>
</extensions>
</trkpt>
<trkpt lat="63.795978546" lon="-19.377986908">
<ele>513.6</ele>
<time>2012-07-26T13:15:44Z</time>
<speed>2.740000</speed>
<extensions>
<speed>2.7</speed>
<temp>0.00</temp>
<bpm>0</bpm>
<rpm>0.00</rpm>
</extensions>
</trkpt>
<trkpt lat="63.796134949" lon="-19.379264832">
<ele>515.7</ele>
<time>2012-07-26T13:16:14Z</time>
<speed>2.370000</speed>
<extensions>
<speed>2.4</speed>
<temp>0.00</temp>
<bpm>0</bpm>
<rpm>0.00</rpm>
</extensions>
</trkpt>
<trkpt lat="63.794757843" lon="-19.383090973">
<ele>515.1</ele>
<time>2012-07-26T13:17:49Z</time>
<speed>2.550000</speed>
<extensions>
<speed>2.6</speed>
<temp>0.00</temp>
<bpm>0</bpm>
<rpm>0.00</rpm>
</extensions>
</trkpt>
<trkpt lat="63.793979645" lon="-19.387046814">
<ele>513.8</ele>
<time>2012-07-26T13:19:14Z</time>
<speed>2.180000</speed>
<extensions>
<speed>2.2</speed>
<temp>0.00</temp>
<bpm>0</bpm>
<rpm>0.00</rpm>
</extensions>
</trkpt>
<trkpt lat="63.793781281" lon="-19.388805389">
<ele>513.7</ele>
<time>2012-07-26T13:19:54Z</time>
<speed>1.940000</speed>
<extensions>
<speed>1.9</speed>
<temp>0.00</temp>
<bpm>0</bpm>
<rpm>0.00</rpm>
</extensions>
</trkpt>
<trkpt lat="63.793197632" lon="-19.390615463">
<ele>510.9</ele>
<time>2012-07-26T13:20:39Z</time>
<speed>3.270000</speed>
<extensions>
<speed>3.3</speed>
<temp>0.00</temp>
<bpm>0</bpm>
<rpm>0.00</rpm>
</extensions>
</trkpt>
<trkpt lat="63.793098450" lon="-19.392059326">
<ele>510.0</ele>
<time>2012-07-26T13:21:04Z</time>
<speed>3.280000</speed>
<extensions>
<speed>3.3</speed>
<temp>0.00</temp>
<bpm>0</bpm>
<rpm>0.00</rpm>
</extensions>
</trkpt>
<trkpt lat="63.792728424" lon="-19.392641068">
<ele>510.0</ele>
<time>2012-07-26T13:21:24Z</time>
<speed>2.360000</speed>
<extensions>
<speed>2.4</speed>
<temp>0.00</temp>
<bpm>0</bpm>
<rpm>0.00</rpm>
</extensions>
</trkpt>
<trkpt lat="63.792175293" lon="-19.394588470">
<ele>509.3</ele>
<time>2012-07-26T13:22:04Z</time>
<speed>2.320000</speed>
<extensions>
<speed>2.3</speed>
<temp>0.00</temp>
<bpm>0</bpm>
<rpm>0.00</rpm>
</extensions>
</trkpt>
<trkpt lat="63.791481018" lon="-19.394720078">
<ele>505.5</ele>
<time>2012-07-26T13:22:34Z</time>
<speed>2.930000</speed>
<extensions>
<speed>2.9</speed>
<temp>0.00</temp>
<bpm>0</bpm>
<rpm>0.00</rpm>
</extensions>
</trkpt>
<trkpt lat="63.789878845" lon="-19.397823334">
<ele>499.7</ele>
<time>2012-07-26T13:23:24Z</time>
<speed>3.030000</speed>
<extensions>
<speed>3.0</speed>
<temp>0.00</temp>
<bpm>0</bpm>
<rpm>0.00</rpm>
</extensions>
</trkpt>
<trkpt lat="63.789745331" lon="-19.398853302">
<ele>498.9</ele>
<time>2012-07-26T13:24:04Z</time>
<speed>2.620000</speed>
<extensions>
<speed>2.6</speed>
<temp>0.00</temp>
<bpm>0</bpm>
<rpm>0.00</rpm>
</extensions>
</trkpt>
<trkpt lat="63.789836884" lon="-19.399877548">
<ele>497.3</ele>
<time>2012-07-26T13:24:19Z</time>
<speed>4.350000</speed>
<extensions>
<speed>4.3</speed>
<temp>0.00</temp>
<bpm>0</bpm>
<rpm>0.00</rpm>
</extensions>
</trkpt>
<trkpt lat="63.789157867" lon="-19.402463913">
<ele>493.0</ele>
<time>2012-07-26T13:24:59Z</time>
<speed>3.740000</speed>
<extensions>
<speed>3.7</speed>
<temp>0.00</temp>
<bpm>0</bpm>
<rpm>0.00</rpm>
</extensions>
</trkpt>
<trkpt lat="63.788711548" lon="-19.406421661">
<ele>495.4</ele>
<time>2012-07-26T13:26:09Z</time>
<speed>2.760000</speed>
<extensions>
<speed>2.8</speed>
<temp>0.00</temp>
<bpm>0</bpm>
<rpm>0.00</rpm>
</extensions>
</trkpt>
<trkpt lat="63.788341522" lon="-19.408082962">
<ele>488.7</ele>
<time>2012-07-26T13:26:29Z</time>
<speed>7.960000</speed>
<extensions>
<speed>8.0</speed>
<temp>0.00</temp>
<bpm>0</bpm>
<rpm>0.00</rpm>
</extensions>
</trkpt>
<trkpt lat="63.786788940" lon="-19.409957886">
<ele>487.7</ele>
<time>2012-07-26T13:27:19Z</time>
<speed>3.610000</speed>
<extensions>
<speed>3.6</speed>
<temp>0.00</temp>
<bpm>0</bpm>
<rpm>0.00</rpm>
</extensions>
</trkpt>
<trkpt lat="63.786773682" lon="-19.411104202">
<ele>485.4</ele>
<time>2012-07-26T13:27:29Z</time>
<speed>7.560000</speed>
<extensions>
<speed>7.6</speed>
<temp>0.00</temp>
<bpm>0</bpm>
<rpm>0.00</rpm>
</extensions>
</trkpt>
<trkpt lat="63.787319183" lon="-19.414451599">
<ele>481.0</ele>
<time>2012-07-26T13:28:04Z</time>
<speed>3.510000</speed>
<extensions>
<speed>3.5</speed>
<temp>0.00</temp>
<bpm>0</bpm>
<rpm>0.00</rpm>
</extensions>
</trkpt>
<trkpt lat="63.784873962" lon="-19.424535751">
<ele>473.4</ele>
<time>2012-07-26T13:30:24Z</time>
<speed>6.610000</speed>
<extensions>
<speed>6.6</speed>
<temp>0.00</temp>
<bpm>0</bpm>
<rpm>0.00</rpm>
</extensions>
</trkpt>
<trkpt lat="63.783481598" lon="-19.427244186">
<ele>463.0</ele>
<time>2012-07-26T13:30:59Z</time>
<speed>4.290000</speed>
<extensions>
<speed>4.3</speed>
<temp>0.00</temp>
<bpm>0</bpm>
<rpm>0.00</rpm>
</extensions>
</trkpt>
<trkpt lat="63.782630920" lon="-19.426450729">
<ele>450.5</ele>
<time>2012-07-26T13:31:19Z</time>
<speed>2.150000</speed>
<extensions>
<speed>2.1</speed>
<temp>0.00</temp>
<bpm>0</bpm>
<rpm>0.00</rpm>
</extensions>
</trkpt>
<trkpt lat="63.783107758" lon="-19.423458099">
<ele>430.4</ele>
<time>2012-07-26T13:31:59Z</time>
<speed>5.940000</speed>
<extensions>
<speed>5.9</speed>
<temp>0.00</temp>
<bpm>0</bpm>
<rpm>0.00</rpm>
</extensions>
</trkpt>
<trkpt lat="63.782920837" lon="-19.421941757">
<ele>424.6</ele>
<time>2012-07-26T13:32:14Z</time>
<speed>2.250000</speed>
<extensions>
<speed>2.3</speed>
<temp>0.00</temp>
<bpm>0</bpm>
<rpm>0.00</rpm>
</extensions>
</trkpt>
<trkpt lat="63.781547546" lon="-19.420997620">
<ele>434.7</ele>
<time>2012-07-26T13:33:19Z</time>
<speed>2.140000</speed>
<extensions>
<speed>2.1</speed>
<temp>0.00</temp>
<bpm>0</bpm>
<rpm>0.00</rpm>
</extensions>
</trkpt>
<trkpt lat="63.780956268" lon="-19.419162750">
<ele>430.6</ele>
<time>2012-07-26T13:33:44Z</time>
<speed>4.990000</speed>
<extensions>
<speed>5.0</speed>
<temp>0.00</temp>
<bpm>0</bpm>
<rpm>0.00</rpm>
</extensions>
</trkpt>
<trkpt lat="63.780986786" lon="-19.418386459">
<ele>427.9</ele>
<time>2012-07-26T13:33:54Z</time>
<speed>2.600000</speed>
<extensions>
<speed>2.6</speed>
<temp>0.00</temp>
<bpm>0</bpm>
<rpm>0.00</rpm>
</extensions>
</trkpt>
<trkpt lat="63.780586243" lon="-19.417833328">
<ele>428.6</ele>
<time>2012-07-26T13:34:14Z</time>
<speed>1.990000</speed>
<extensions>
<speed>2.0</speed>
<temp>0.00</temp>
<bpm>0</bpm>
<rpm>0.00</rpm>
</extensions>
</trkpt>
<trkpt lat="63.780078888" lon="-19.418708801">
<ele>438.8</ele>
<time>2012-07-26T13:35:19Z</time>
<speed>0.760000</speed>
<extensions>
<speed>0.8</speed>
<temp>0.00</temp>
<bpm>0</bpm>
<rpm>0.00</rpm>
</extensions>
</trkpt>
<trkpt lat="63.779472351" lon="-19.418992996">
<ele>445.2</ele>
<time>2012-07-26T13:36:34Z</time>
<speed>1.240000</speed>
<extensions>
<speed>1.2</speed>
<temp>0.00</temp>
<bpm>0</bpm>
<rpm>0.00</rpm>
</extensions>
</trkpt>
<trkpt lat="63.778862000" lon="-19.419794083">
<ele>451.4</ele>
<time>2012-07-26T13:37:44Z</time>
<speed>1.110000</speed>
<extensions>
<speed>1.1</speed>
<temp>0.00</temp>
<bpm>0</bpm>
<rpm>0.00</rpm>
</extensions>
</trkpt>
<trkpt lat="63.778251648" lon="-19.419425964">
<ele>454.9</ele>
<time>2012-07-26T13:39:04Z</time>
<speed>2.540000</speed>
<extensions>
<speed>2.5</speed>
<temp>0.00</temp>
<bpm>0</bpm>
<rpm>0.00</rpm>
</extensions>
</trkpt>
<trkpt lat="63.777328491" lon="-19.420501709">
<ele>462.8</ele>
<time>2012-07-26T13:40:19Z</time>
<speed>0.840000</speed>
<extensions>
<speed>0.8</speed>
<temp>0.00</temp>
<bpm>0</bpm>
<rpm>0.00</rpm>
</extensions>
</trkpt>
<trkpt lat="63.776378632" lon="-19.420471191">
<ele>470.1</ele>
<time>2012-07-26T13:41:24Z</time>
<speed>1.830000</speed>
<extensions>
<speed>1.8</speed>
<temp>0.00</temp>
<bpm>0</bpm>
<rpm>0.00</rpm>
</extensions>
</trkpt>
<trkpt lat="63.775966644" lon="-19.420787811">
<ele>477.6</ele>
<time>2012-07-26T13:42:29Z</time>
<speed>0.870000</speed>
<extensions>
<speed>0.9</speed>
<temp>0.00</temp>
<bpm>0</bpm>
<rpm>0.00</rpm>
</extensions>
</trkpt>
<trkpt lat="63.775264740" lon="-19.423452377">
<ele>503.2</ele>
<time>2012-07-26T13:46:39Z</time>
<speed>0.520000</speed>
<extensions>
<speed>0.5</speed>
<temp>0.00</temp>
<bpm>0</bpm>
<rpm>0.00</rpm>
</extensions>
</trkpt>
<trkpt lat="63.774856567" lon="-19.423700333">
<ele>510.2</ele>
<time>2012-07-26T13:48:04Z</time>
<speed>0.780000</speed>
<extensions>
<speed>0.8</speed>
<temp>0.00</temp>
<bpm>0</bpm>
<rpm>0.00</rpm>
</extensions>
</trkpt>
<trkpt lat="63.773750305" lon="-19.423385620">
<ele>524.7</ele>
<time>2012-07-26T13:50:24Z</time>
<speed>0.720000</speed>
<extensions>
<speed>0.7</speed>
<temp>0.00</temp>
<bpm>0</bpm>
<rpm>0.00</rpm>
</extensions>
</trkpt>
<trkpt lat="63.773525238" lon="-19.424081802">
<ele>534.3</ele>
<time>2012-07-26T13:51:39Z</time>
<speed>0.710000</speed>
<extensions>
<speed>0.7</speed>
<temp>0.00</temp>
<bpm>0</bpm>
<rpm>0.00</rpm>
</extensions>
</trkpt>
<trkpt lat="63.773403168" lon="-19.425334930">
<ele>543.0</ele>
<time>2012-07-26T13:53:44Z</time>
<speed>0.880000</speed>
<extensions>
<speed>0.9</speed>
<temp>0.00</temp>
<bpm>0</bpm>
<rpm>0.00</rpm>
</extensions>
</trkpt>
<trkpt lat="63.772205353" lon="-19.424867630">
<ele>557.9</ele>
<time>2012-07-26T13:56:39Z</time>
<speed>0.720000</speed>
<extensions>
<speed>0.7</speed>
<temp>0.00</temp>
<bpm>0</bpm>
<rpm>0.00</rpm>
</extensions>
</trkpt>
<trkpt lat="63.770660400" lon="-19.424936295">
<ele>571.8</ele>
<time>2012-07-26T13:59:49Z</time>
<speed>1.910000</speed>
<extensions>
<speed>1.9</speed>
<temp>0.00</temp>
<bpm>0</bpm>
<rpm>0.00</rpm>
</extensions>
</trkpt>
<trkpt lat="63.769100189" lon="-19.427097321">
<ele>573.7</ele>
<time>2012-07-26T14:01:49Z</time>
<speed>2.560000</speed>
<extensions>
<speed>2.6</speed>
<temp>0.00</temp>
<bpm>0</bpm>
<rpm>0.00</rpm>
</extensions>
</trkpt>
<trkpt lat="63.768104553" lon="-19.429014206">
<ele>571.1</ele>
<time>2012-07-26T14:02:29Z</time>
<speed>3.400000</speed>
<extensions>
<speed>3.4</speed>
<temp>0.00</temp>
<bpm>0</bpm>
<rpm>0.00</rpm>
</extensions>
</trkpt>
<trkpt lat="63.767478943" lon="-19.430971146">
<ele>565.2</ele>
<time>2012-07-26T14:02:49Z</time>
<speed>7.350000</speed>
<extensions>
<speed>7.3</speed>
<temp>0.00</temp>
<bpm>0</bpm>
<rpm>0.00</rpm>
</extensions>
</trkpt>
<trkpt lat="63.767200470" lon="-19.433166504">
<ele>558.5</ele>
<time>2012-07-26T14:03:04Z</time>
<speed>9.870000</speed>
<extensions>
<speed>9.9</speed>
<temp>0.00</temp>
<bpm>0</bpm>
<rpm>0.00</rpm>
</extensions>
</trkpt>
<trkpt lat="63.765224457" lon="-19.438062668">
<ele>530.0</ele>
<time>2012-07-26T14:03:44Z</time>
<speed>11.250000</speed>
<extensions>
<speed>11.3</speed>
<temp>0.00</temp>
<bpm>0</bpm>
<rpm>0.00</rpm>
</extensions>
</trkpt>
<trkpt lat="63.763805389" lon="-19.440454483">
<ele>531.6</ele>
<time>2012-07-26T14:04:04Z</time>
<speed>8.600000</speed>
<extensions>
<speed>8.6</speed>
<temp>0.00</temp>
<bpm>0</bpm>
<rpm>0.00</rpm>
</extensions>
</trkpt>
<trkpt lat="63.763500214" lon="-19.440788269">
<ele>530.4</ele>
<time>2012-07-26T14:04:09Z</time>
<speed>6.850000</speed>
<extensions>
<speed>6.8</speed>
<temp>0.00</temp>
<bpm>0</bpm>
<rpm>0.00</rpm>
</extensions>
</trkpt>
<trkpt lat="63.762916565" lon="-19.440769196">
<ele>530.2</ele>
<time>2012-07-26T14:04:19Z</time>
<speed>5.620000</speed>
<extensions>
<speed>5.6</speed>
<temp>0.00</temp>
<bpm>0</bpm>
<rpm>0.00</rpm>
</extensions>
</trkpt>
<trkpt lat="63.760662079" lon="-19.439041138">
<ele>527.0</ele>
<time>2012-07-26T14:05:04Z</time>
<speed>5.580000</speed>
<extensions>
<speed>5.6</speed>
<temp>0.00</temp>
<bpm>0</bpm>
<rpm>0.00</rpm>
</extensions>
</trkpt>
<trkpt lat="63.760223389" lon="-19.439126968">
<ele>527.2</ele>
<time>2012-07-26T14:05:14Z</time>
<speed>4.190000</speed>
<extensions>
<speed>4.2</speed>
<temp>0.00</temp>
<bpm>0</bpm>
<rpm>0.00</rpm>
</extensions>
</trkpt>
<trkpt lat="63.759334564" lon="-19.440599442">
<ele>528.1</ele>
<time>2012-07-26T14:05:39Z</time>
<speed>5.230000</speed>
<extensions>
<speed>5.2</speed>
<temp>0.00</temp>
<bpm>0</bpm>
<rpm>0.00</rpm>
</extensions>
</trkpt>
<trkpt lat="63.756542206" lon="-19.448596954">
<ele>529.9</ele>
<time>2012-07-26T14:07:19Z</time>
<speed>4.520000</speed>
<extensions>
<speed>4.5</speed>
<temp>0.00</temp>
<bpm>0</bpm>
<rpm>0.00</rpm>
</extensions>
</trkpt>
<trkpt lat="63.755661011" lon="-19.449811935">
<ele>542.7</ele>
<time>2012-07-26T14:10:04Z</time>
<speed>0.970000</speed>
<extensions>
<speed>1.0</speed>
<temp>0.00</temp>
<bpm>0</bpm>
<rpm>0.00</rpm>
</extensions>
</trkpt>
<trkpt lat="63.754539490" lon="-19.450420380">
<ele>553.5</ele>
<time>2012-07-26T14:11:44Z</time>
<speed>1.960000</speed>
<extensions>
<speed>2.0</speed>
<temp>0.00</temp>
<bpm>0</bpm>
<rpm>0.00</rpm>
</extensions>
</trkpt>
<trkpt lat="63.753120422" lon="-19.452287674">
<ele>554.2</ele>
<time>2012-07-26T14:13:04Z</time>
<speed>0.030000</speed>
<extensions>
<speed>0.0</speed>
<temp>0.00</temp>
<bpm>0</bpm>
<rpm>0.00</rpm>
</extensions>
</trkpt>
<trkpt lat="63.752994537" lon="-19.452024460">
<ele>552.2</ele>
<time>2012-07-26T14:13:59Z</time>
<speed>0.340000</speed>
<extensions>
<speed>0.3</speed>
<temp>0.00</temp>
<bpm>0</bpm>
<rpm>0.00</rpm>
</extensions>
</trkpt>
<trkpt lat="63.753276825" lon="-19.452350616">
<ele>555.2</ele>
<time>2012-07-26T14:14:22Z</time>
<speed>4.070000</speed>
<extensions>
<speed>4.1</speed>
<temp>0.00</temp>
<bpm>0</bpm>
<rpm>0.00</rpm>
</extensions>
</trkpt>
<trkpt lat="63.753089905" lon="-19.452325821">
<ele>554.2</ele>
<time>2012-07-26T14:14:37Z</time>
<speed>1.800000</speed>
<extensions>
<speed>1.8</speed>
<temp>0.00</temp>
<bpm>0</bpm>
<rpm>0.00</rpm>
</extensions>
</trkpt>
<trkpt lat="63.752288818" lon="-19.453525543">
<ele>555.1</ele>
<time>2012-07-26T14:15:22Z</time>
<speed>3.080000</speed>
<extensions>
<speed>3.1</speed>
<temp>0.00</temp>
<bpm>0</bpm>
<rpm>0.00</rpm>
</extensions>
</trkpt>
<trkpt lat="63.750865936" lon="-19.456388474">
<ele>545.2</ele>
<time>2012-07-26T14:16:12Z</time>
<speed>6.490000</speed>
<extensions>
<speed>6.5</speed>
<temp>0.00</temp>
<bpm>0</bpm>
<rpm>0.00</rpm>
</extensions>
</trkpt>
<trkpt lat="63.749786377" lon="-19.460805893">
<ele>540.2</ele>
<time>2012-07-26T14:16:47Z</time>
<speed>7.810000</speed>
<extensions>
<speed>7.8</speed>
<temp>0.00</temp>
<bpm>0</bpm>
<rpm>0.00</rpm>
</extensions>
</trkpt>
<trkpt lat="63.749347687" lon="-19.463253021">
<ele>539.2</ele>
<time>2012-07-26T14:17:52Z</time>
<speed>0.190000</speed>
<extensions>
<speed>0.2</speed>
<temp>0.00</temp>
<bpm>0</bpm>
<rpm>0.00</rpm>
</extensions>
</trkpt>
<trkpt lat="63.748634338" lon="-19.464307785">
<ele>525.6</ele>
<time>2012-07-26T14:18:27Z</time>
<speed>4.050000</speed>
<extensions>
<speed>4.0</speed>
<temp>0.00</temp>
<bpm>0</bpm>
<rpm>0.00</rpm>
</extensions>
</trkpt>
<trkpt lat="63.747966766" lon="-19.466171265">
<ele>506.7</ele>
<time>2012-07-26T14:18:57Z</time>
<speed>4.000000</speed>
<extensions>
<speed>4.0</speed>
<temp>0.00</temp>
<bpm>0</bpm>
<rpm>0.00</rpm>
</extensions>
</trkpt>
<trkpt lat="63.746940613" lon="-19.466342926">
<ele>499.6</ele>
<time>2012-07-26T14:19:27Z</time>
<speed>4.620000</speed>
<extensions>
<speed>4.6</speed>
<temp>0.00</temp>
<bpm>0</bpm>
<rpm>0.00</rpm>
</extensions>
</trkpt>
<trkpt lat="63.746467590" lon="-19.465698242">
<ele>499.3</ele>
<time>2012-07-26T14:19:37Z</time>
<speed>5.970000</speed>
<extensions>
<speed>6.0</speed>
<temp>0.00</temp>
<bpm>0</bpm>
<rpm>0.00</rpm>
</extensions>
</trkpt>
<trkpt lat="63.745513916" lon="-19.465724945">
<ele>491.5</ele>
<time>2012-07-26T14:20:07Z</time>
<speed>4.020000</speed>
<extensions>
<speed>4.0</speed>
<temp>0.00</temp>
<bpm>0</bpm>
<rpm>0.00</rpm>
</extensions>
</trkpt>
<trkpt lat="63.745044708" lon="-19.465391159">
<ele>484.4</ele>
<time>2012-07-26T14:20:57Z</time>
<speed>0.100000</speed>
<extensions>
<speed>0.1</speed>
<temp>0.00</temp>
<bpm>0</bpm>
<rpm>0.00</rpm>
</extensions>
</trkpt>
<trkpt lat="63.744800568" lon="-19.461906433">
<ele>491.4</ele>
<time>2012-07-26T14:22:32Z</time>
<speed>1.790000</speed>
<extensions>
<speed>1.8</speed>
<temp>0.00</temp>
<bpm>0</bpm>
<rpm>0.00</rpm>
</extensions>
</trkpt>
<trkpt lat="63.744945526" lon="-19.458839417">
<ele>486.8</ele>
<time>2012-07-26T14:23:02Z</time>
<speed>5.750000</speed>
<extensions>
<speed>5.8</speed>
<temp>0.00</temp>
<bpm>0</bpm>
<rpm>0.00</rpm>
</extensions>
</trkpt>
<trkpt lat="63.744094849" lon="-19.455436707">
<ele>473.6</ele>
<time>2012-07-26T14:23:47Z</time>
<speed>4.600000</speed>
<extensions>
<speed>4.6</speed>
<temp>0.00</temp>
<bpm>0</bpm>
<rpm>0.00</rpm>
</extensions>
</trkpt>
<trkpt lat="63.743282318" lon="-19.453929901">
<ele>465.5</ele>
<time>2012-07-26T14:24:02Z</time>
<speed>8.620000</speed>
<extensions>
<speed>8.6</speed>
<temp>0.00</temp>
<bpm>0</bpm>
<rpm>0.00</rpm>
</extensions>
</trkpt>
<trkpt lat="63.741966248" lon="-19.452760696">
<ele>453.2</ele>
<time>2012-07-26T14:24:27Z</time>
<speed>6.360000</speed>
<extensions>
<speed>6.4</speed>
<temp>0.00</temp>
<bpm>0</bpm>
<rpm>0.00</rpm>
</extensions>
</trkpt>
<trkpt lat="63.740734100" lon="-19.454040527">
<ele>438.6</ele>
<time>2012-07-26T14:24:57Z</time>
<speed>5.470000</speed>
<extensions>
<speed>5.5</speed>
<temp>0.00</temp>
<bpm>0</bpm>
<rpm>0.00</rpm>
</extensions>
</trkpt>
<trkpt lat="63.740486145" lon="-19.453992844">
<ele>437.6</ele>
<time>2012-07-26T14:25:02Z</time>
<speed>5.070000</speed>
<extensions>
<speed>5.1</speed>
<temp>0.00</temp>
<bpm>0</bpm>
<rpm>0.00</rpm>
</extensions>
</trkpt>
<trkpt lat="63.739826202" lon="-19.452646255">
<ele>430.1</ele>
<time>2012-07-26T14:25:22Z</time>
<speed>6.280000</speed>
<extensions>
<speed>6.3</speed>
<temp>0.00</temp>
<bpm>0</bpm>
<rpm>0.00</rpm>
</extensions>
</trkpt>
<trkpt lat="63.738708496" lon="-19.451400757">
<ele>416.9</ele>
<time>2012-07-26T14:25:42Z</time>
<speed>5.420000</speed>
<extensions>
<speed>5.4</speed>
<temp>0.00</temp>
<bpm>0</bpm>
<rpm>0.00</rpm>
</extensions>
</trkpt>
<trkpt lat="63.737289429" lon="-19.450710297">
<ele>399.5</ele>
<time>2012-07-26T14:27:37Z</time>
<speed>4.050000</speed>
<extensions>
<speed>4.0</speed>
<temp>0.00</temp>
<bpm>0</bpm>
<rpm>0.00</rpm>
</extensions>
</trkpt>
<trkpt lat="63.736980438" lon="-19.451456070">
<ele>393.3</ele>
<time>2012-07-26T14:27:47Z</time>
<speed>3.170000</speed>
<extensions>
<speed>3.2</speed>
<temp>0.00</temp>
<bpm>0</bpm>
<rpm>0.00</rpm>
</extensions>
</trkpt>
<trkpt lat="63.736923218" lon="-19.453212738">
<ele>388.0</ele>
<time>2012-07-26T14:28:42Z</time>
<speed>4.660000</speed>
<extensions>
<speed>4.7</speed>
<temp>0.00</temp>
<bpm>0</bpm>
<rpm>0.00</rpm>
</extensions>
</trkpt>
<trkpt lat="63.736663818" lon="-19.454330444">
<ele>378.5</ele>
<time>2012-07-26T14:28:52Z</time>
<speed>6.430000</speed>
<extensions>
<speed>6.4</speed>
<temp>0.00</temp>
<bpm>0</bpm>
<rpm>0.00</rpm>
</extensions>
</trkpt>
<trkpt lat="63.735538483" lon="-19.455730438">
<ele>354.9</ele>
<time>2012-07-26T14:29:52Z</time>
<speed>4.160000</speed>
<extensions>
<speed>4.2</speed>
<temp>0.00</temp>
<bpm>0</bpm>
<rpm>0.00</rpm>
</extensions>
</trkpt>
<trkpt lat="63.735034943" lon="-19.457508087">
<ele>346.2</ele>
<time>2012-07-26T14:30:37Z</time>
<speed>2.200000</speed>
<extensions>
<speed>2.2</speed>
<temp>0.00</temp>
<bpm>0</bpm>
<rpm>0.00</rpm>
</extensions>
</trkpt>
<trkpt lat="63.734275818" lon="-19.458332062">
<ele>338.5</ele>
<time>2012-07-26T14:31:02Z</time>
<speed>3.840000</speed>
<extensions>
<speed>3.8</speed>
<temp>0.00</temp>
<bpm>0</bpm>
<rpm>0.00</rpm>
</extensions>
</trkpt>
<trkpt lat="63.733367920" lon="-19.460338593">
<ele>320.6</ele>
<time>2012-07-26T14:31:37Z</time>
<speed>4.560000</speed>
<extensions>
<speed>4.6</speed>
<temp>0.00</temp>
<bpm>0</bpm>
<rpm>0.00</rpm>
</extensions>
</trkpt>
<trkpt lat="63.732242584" lon="-19.461431503">
<ele>310.8</ele>
<time>2012-07-26T14:32:07Z</time>
<speed>5.240000</speed>
<extensions>
<speed>5.2</speed>
<temp>0.00</temp>
<bpm>0</bpm>
<rpm>0.00</rpm>
</extensions>
</trkpt>
<trkpt lat="63.731540680" lon="-19.462835312">
<ele>308.8</ele>
<time>2012-07-26T14:32:32Z</time>
<speed>3.460000</speed>
<extensions>
<speed>3.5</speed>
<temp>0.00</temp>
<bpm>0</bpm>
<rpm>0.00</rpm>
</extensions>
</trkpt>
<trkpt lat="63.731212616" lon="-19.466470718">
<ele>297.2</ele>
<time>2012-07-26T14:33:07Z</time>
<speed>7.660000</speed>
<extensions>
<speed>7.7</speed>
<temp>0.00</temp>
<bpm>0</bpm>
<rpm>0.00</rpm>
</extensions>
</trkpt>
<trkpt lat="63.730972290" lon="-19.467639923">
<ele>291.9</ele>
<time>2012-07-26T14:33:22Z</time>
<speed>3.370000</speed>
<extensions>
<speed>3.4</speed>
<temp>0.00</temp>
<bpm>0</bpm>
<rpm>0.00</rpm>
</extensions>
</trkpt>
<trkpt lat="63.730640411" lon="-19.468406677">
<ele>289.0</ele>
<time>2012-07-26T14:33:37Z</time>
<speed>3.800000</speed>
<extensions>
<speed>3.8</speed>
<temp>0.00</temp>
<bpm>0</bpm>
<rpm>0.00</rpm>
</extensions>
</trkpt>
<trkpt lat="63.729797363" lon="-19.469284058">
<ele>283.4</ele>
<time>2012-07-26T14:33:57Z</time>
<speed>6.740000</speed>
<extensions>
<speed>6.7</speed>
<temp>0.00</temp>
<bpm>0</bpm>
<rpm>0.00</rpm>
</extensions>
</trkpt>
<trkpt lat="63.728824615" lon="-19.473503113">
<ele>280.6</ele>
<time>2012-07-26T14:52:42Z</time>
<speed>2.350000</speed>
<extensions>
<speed>2.4</speed>
<temp>0.00</temp>
<bpm>0</bpm>
<rpm>0.00</rpm>
</extensions>
</trkpt>
<trkpt lat="63.727237701" lon="-19.477903366">
<ele>277.4</ele>
<time>2012-07-26T14:54:22Z</time>
<speed>3.890000</speed>
<extensions>
<speed>3.9</speed>
<temp>0.00</temp>
<bpm>0</bpm>
<rpm>0.00</rpm>
</extensions>
</trkpt>
<trkpt lat="63.725948334" lon="-19.485645294">
<ele>275.5</ele>
<time>2012-07-26T14:56:22Z</time>
<speed>2.940000</speed>
<extensions>
<speed>2.9</speed>
<temp>0.00</temp>
<bpm>0</bpm>
<rpm>0.00</rpm>
</extensions>
</trkpt>
<trkpt lat="63.725688934" lon="-19.488800049">
<ele>270.7</ele>
<time>2012-07-26T14:57:07Z</time>
<speed>6.330000</speed>
<extensions>
<speed>6.3</speed>
<temp>0.00</temp>
<bpm>0</bpm>
<rpm>0.00</rpm>
</extensions>
</trkpt>
<trkpt lat="63.724235535" lon="-19.492616653">
<ele>267.4</ele>
<time>2012-07-26T14:58:12Z</time>
<speed>2.490000</speed>
<extensions>
<speed>2.5</speed>
<temp>0.00</temp>
<bpm>0</bpm>
<rpm>0.00</rpm>
</extensions>
</trkpt>
<trkpt lat="63.721485138" lon="-19.498323441">
<ele>259.0</ele>
<time>2012-07-26T15:00:02Z</time>
<speed>5.190000</speed>
<extensions>
<speed>5.2</speed>
<temp>0.00</temp>
<bpm>0</bpm>
<rpm>0.00</rpm>
</extensions>
</trkpt>
<trkpt lat="63.720798492" lon="-19.501129150">
<ele>246.4</ele>
<time>2012-07-26T15:00:32Z</time>
<speed>9.460000</speed>
<extensions>
<speed>9.5</speed>
<temp>0.00</temp>
<bpm>0</bpm>
<rpm>0.00</rpm>
</extensions>
</trkpt>
<trkpt lat="63.720180511" lon="-19.502126694">
<ele>243.2</ele>
<time>2012-07-26T15:00:42Z</time>
<speed>7.830000</speed>
<extensions>
<speed>7.8</speed>
<temp>0.00</temp>
<bpm>0</bpm>
<rpm>0.00</rpm>
</extensions>
</trkpt>
<trkpt lat="63.716381073" lon="-19.504453659">
<ele>233.3</ele>
<time>2012-07-26T15:02:07Z</time>
<speed>5.800000</speed>
<extensions>
<speed>5.8</speed>
<temp>0.00</temp>
<bpm>0</bpm>
<rpm>0.00</rpm>
</extensions>
</trkpt>
<trkpt lat="63.715591431" lon="-19.505844116">
<ele>237.5</ele>
<time>2012-07-26T15:08:27Z</time>
<speed>2.900000</speed>
<extensions>
<speed>2.9</speed>
<temp>0.00</temp>
<bpm>0</bpm>
<rpm>0.00</rpm>
</extensions>
</trkpt>
<trkpt lat="63.714618683" lon="-19.508432388">
<ele>238.7</ele>
<time>2012-07-26T15:09:17Z</time>
<speed>2.690000</speed>
<extensions>
<speed>2.7</speed>
<temp>0.00</temp>
<bpm>0</bpm>
<rpm>0.00</rpm>
</extensions>
</trkpt>
<trkpt lat="63.713451385" lon="-19.512678146">
<ele>225.6</ele>
<time>2012-07-26T15:10:27Z</time>
<speed>3.120000</speed>
<extensions>
<speed>3.1</speed>
<temp>0.00</temp>
<bpm>0</bpm>
<rpm>0.00</rpm>
</extensions>
</trkpt>
<trkpt lat="63.712627411" lon="-19.514591217">
<ele>223.7</ele>
<time>2012-07-26T15:11:07Z</time>
<speed>2.600000</speed>
<extensions>
<speed>2.6</speed>
<temp>0.00</temp>
<bpm>0</bpm>
<rpm>0.00</rpm>
</extensions>
</trkpt>
<trkpt lat="63.711524963" lon="-19.515575409">
<ele>221.3</ele>
<time>2012-07-26T15:11:52Z</time>
<speed>2.320000</speed>
<extensions>
<speed>2.3</speed>
<temp>0.00</temp>
<bpm>0</bpm>
<rpm>0.00</rpm>
</extensions>
</trkpt>
<trkpt lat="63.710144043" lon="-19.516191483">
<ele>219.9</ele>
<time>2012-07-26T15:12:42Z</time>
<speed>1.890000</speed>
<extensions>
<speed>1.9</speed>
<temp>0.00</temp>
<bpm>0</bpm>
<rpm>0.00</rpm>
</extensions>
</trkpt>
<trkpt lat="63.709518433" lon="-19.517675400">
<ele>220.2</ele>
<time>2012-07-26T15:13:22Z</time>
<speed>2.060000</speed>
<extensions>
<speed>2.1</speed>
<temp>0.00</temp>
<bpm>0</bpm>
<rpm>0.00</rpm>
</extensions>
</trkpt>
<trkpt lat="63.708896637" lon="-19.518510818">
<ele>219.3</ele>
<time>2012-07-26T15:13:47Z</time>
<speed>2.940000</speed>
<extensions>
<speed>2.9</speed>
<temp>0.00</temp>
<bpm>0</bpm>
<rpm>0.00</rpm>
</extensions>
</trkpt>
<trkpt lat="63.707698822" lon="-19.523687363">
<ele>228.4</ele>
<time>2012-07-26T15:17:02Z</time>
<speed>0.640000</speed>
<extensions>
<speed>0.6</speed>
<temp>0.00</temp>
<bpm>0</bpm>
<rpm>0.00</rpm>
</extensions>
</trkpt>
<trkpt lat="63.706264496" lon="-19.527772903">
<ele>229.2</ele>
<time>2012-07-26T15:18:57Z</time>
<speed>3.260000</speed>
<extensions>
<speed>3.3</speed>
<temp>0.00</temp>
<bpm>0</bpm>
<rpm>0.00</rpm>
</extensions>
</trkpt>
<trkpt lat="63.705635071" lon="-19.531970978">
<ele>224.6</ele>
<time>2012-07-26T15:19:57Z</time>
<speed>4.120000</speed>
<extensions>
<speed>4.1</speed>
<temp>0.00</temp>
<bpm>0</bpm>
<rpm>0.00</rpm>
</extensions>
</trkpt>
<trkpt lat="63.704963684" lon="-19.534709930">
<ele>221.8</ele>
<time>2012-07-26T15:21:52Z</time>
<speed>3.290000</speed>
<extensions>
<speed>3.3</speed>
<temp>0.00</temp>
<bpm>0</bpm>
<rpm>0.00</rpm>
</extensions>
</trkpt>
<trkpt lat="63.702537537" lon="-19.540597916">
<ele>214.1</ele>
<time>2012-07-26T15:23:57Z</time>
<speed>3.110000</speed>
<extensions>
<speed>3.1</speed>
<temp>0.00</temp>
<bpm>0</bpm>
<rpm>0.00</rpm>
</extensions>
</trkpt>
<trkpt lat="63.700683594" lon="-19.546731949">
<ele>208.9</ele>
<time>2012-07-26T15:26:12Z</time>
<speed>3.400000</speed>
<extensions>
<speed>3.4</speed>
<temp>0.00</temp>
<bpm>0</bpm>
<rpm>0.00</rpm>
</extensions>
</trkpt>
<trkpt lat="63.699844360" lon="-19.548698425">
<ele>205.6</ele>
<time>2012-07-26T15:26:52Z</time>
<speed>1.060000</speed>
<extensions>
<speed>1.1</speed>
<temp>0.00</temp>
<bpm>0</bpm>
<rpm>0.00</rpm>
</extensions>
</trkpt>
<trkpt lat="63.699104309" lon="-19.552118301">
<ele>201.2</ele>
<time>2012-07-26T15:27:47Z</time>
<speed>3.060000</speed>
<extensions>
<speed>3.1</speed>
<temp>0.00</temp>
<bpm>0</bpm>
<rpm>0.00</rpm>
</extensions>
</trkpt>
<trkpt lat="63.698726654" lon="-19.553068161">
<ele>199.3</ele>
<time>2012-07-26T15:28:12Z</time>
<speed>0.040000</speed>
<extensions>
<speed>0.0</speed>
<temp>0.00</temp>
<bpm>0</bpm>
<rpm>0.00</rpm>
</extensions>
</trkpt>
<trkpt lat="63.698833466" lon="-19.552999496">
<ele>200.1</ele>
<time>2012-07-26T15:29:32Z</time>
<speed>0.090000</speed>
<extensions>
<speed>0.1</speed>
<temp>0.00</temp>
<bpm>0</bpm>
<rpm>0.00</rpm>
</extensions>
</trkpt>
<trkpt lat="63.698871613" lon="-19.554056168">
<ele>200.8</ele>
<time>2012-07-26T15:31:22Z</time>
<speed>4.270000</speed>
<extensions>
<speed>4.3</speed>
<temp>0.00</temp>
<bpm>0</bpm>
<rpm>0.00</rpm>
</extensions>
</trkpt>
<trkpt lat="63.698719025" lon="-19.555574417">
<ele>198.2</ele>
<time>2012-07-26T15:31:47Z</time>
<speed>3.150000</speed>
<extensions>
<speed>3.2</speed>
<temp>0.00</temp>
<bpm>0</bpm>
<rpm>0.00</rpm>
</extensions>
</trkpt>
<trkpt lat="63.697910309" lon="-19.557933807">
<ele>199.3</ele>
<time>2012-07-26T15:32:37Z</time>
<speed>2.610000</speed>
<extensions>
<speed>2.6</speed>
<temp>0.00</temp>
<bpm>0</bpm>
<rpm>0.00</rpm>
</extensions>
</trkpt>
<trkpt lat="63.698207855" lon="-19.560451508">
<ele>195.4</ele>
<time>2012-07-26T15:33:17Z</time>
<speed>7.360000</speed>
<extensions>
<speed>7.4</speed>
<temp>0.00</temp>
<bpm>0</bpm>
<rpm>0.00</rpm>
</extensions>
</trkpt>
<trkpt lat="63.698348999" lon="-19.566625595">
<ele>186.7</ele>
<time>2012-07-26T15:35:27Z</time>
<speed>4.060000</speed>
<extensions>
<speed>4.1</speed>
<temp>0.00</temp>
<bpm>0</bpm>
<rpm>0.00</rpm>
</extensions>
</trkpt>
<trkpt lat="63.698169708" lon="-19.570333481">
<ele>184.4</ele>
<time>2012-07-26T15:36:32Z</time>
<speed>3.610000</speed>
<extensions>
<speed>3.6</speed>
<temp>0.00</temp>
<bpm>0</bpm>
<rpm>0.00</rpm>
</extensions>
</trkpt>
<trkpt lat="63.698184967" lon="-19.576345444">
<ele>182.8</ele>
<time>2012-07-26T15:38:12Z</time>
<speed>2.590000</speed>
<extensions>
<speed>2.6</speed>
<temp>0.00</temp>
<bpm>0</bpm>
<rpm>0.00</rpm>
</extensions>
</trkpt>
<trkpt lat="63.698410034" lon="-19.579900742">
<ele>181.3</ele>
<time>2012-07-26T15:39:07Z</time>
<speed>3.760000</speed>
<extensions>
<speed>3.8</speed>
<temp>0.00</temp>
<bpm>0</bpm>
<rpm>0.00</rpm>
</extensions>
</trkpt>
<trkpt lat="63.698814392" lon="-19.581752777">
<ele>180.2</ele>
<time>2012-07-26T15:41:37Z</time>
<speed>1.210000</speed>
<extensions>
<speed>1.2</speed>
<temp>0.00</temp>
<bpm>0</bpm>
<rpm>0.00</rpm>
</extensions>
</trkpt>
<trkpt lat="63.699214935" lon="-19.592298508">
<ele>175.6</ele>
<time>2012-07-26T15:46:32Z</time>
<speed>2.470000</speed>
<extensions>
<speed>2.5</speed>
<temp>0.00</temp>
<bpm>0</bpm>
<rpm>0.00</rpm>
</extensions>
</trkpt>
<trkpt lat="63.699104309" lon="-19.593875885">
<ele>174.6</ele>
<time>2012-07-26T15:47:02Z</time>
<speed>2.700000</speed>
<extensions>
<speed>2.7</speed>
<temp>0.00</temp>
<bpm>0</bpm>
<rpm>0.00</rpm>
</extensions>
</trkpt>
<trkpt lat="63.698516846" lon="-19.596033096">
<ele>173.9</ele>
<time>2012-07-26T15:47:47Z</time>
<speed>2.390000</speed>
<extensions>
<speed>2.4</speed>
<temp>0.00</temp>
<bpm>0</bpm>
<rpm>0.00</rpm>
</extensions>
</trkpt>
<trkpt lat="63.698413849" lon="-19.597106934">
<ele>173.3</ele>
<time>2012-07-26T15:48:07Z</time>
<speed>2.790000</speed>
<extensions>
<speed>2.8</speed>
<temp>0.00</temp>
<bpm>0</bpm>
<rpm>0.00</rpm>
</extensions>
</trkpt>
<trkpt lat="63.698390961" lon="-19.599258423">
<ele>171.9</ele>
<time>2012-07-26T15:48:47Z</time>
<speed>2.990000</speed>
<extensions>
<speed>3.0</speed>
<temp>0.00</temp>
<bpm>0</bpm>
<rpm>0.00</rpm>
</extensions>
</trkpt>
<trkpt lat="63.698894501" lon="-19.611759186">
<ele>165.9</ele>
<time>2012-07-26T15:54:12Z</time>
<speed>2.910000</speed>
<extensions>
<speed>2.9</speed>
<temp>0.00</temp>
<bpm>0</bpm>
<rpm>0.00</rpm>
</extensions>
</trkpt>
<trkpt lat="63.699611664" lon="-19.625421524">
<ele>158.8</ele>
<time>2012-07-26T15:58:22Z</time>
<speed>3.220000</speed>
<extensions>
<speed>3.2</speed>
<temp>0.00</temp>
<bpm>0</bpm>
<rpm>0.00</rpm>
</extensions>
</trkpt>
<trkpt lat="63.700260162" lon="-19.633630753">
<ele>155.0</ele>
<time>2012-07-26T16:00:27Z</time>
<speed>3.480000</speed>
<extensions>
<speed>3.5</speed>
<temp>0.00</temp>
<bpm>0</bpm>
<rpm>0.00</rpm>
</extensions>
</trkpt>
<trkpt lat="63.701492310" lon="-19.645437241">
<ele>150.6</ele>
<time>2012-07-26T16:07:37Z</time>
<speed>0.710000</speed>
<extensions>
<speed>0.7</speed>
<temp>0.00</temp>
<bpm>0</bpm>
<rpm>0.00</rpm>
</extensions>
</trkpt>
<trkpt lat="63.701789856" lon="-19.644947052">
<ele>150.9</ele>
<time>2012-07-26T16:08:37Z</time>
<speed>0.450000</speed>
<extensions>
<speed>0.5</speed>
<temp>0.00</temp>
<bpm>0</bpm>
<rpm>0.00</rpm>
</extensions>
</trkpt>
<trkpt lat="63.701686859" lon="-19.644968033">
<ele>151.0</ele>
<time>2012-07-26T16:18:54Z</time>
<speed>0.090000</speed>
<extensions>
<speed>0.1</speed>
<temp>0.00</temp>
<bpm>0</bpm>
<rpm>0.00</rpm>
</extensions>
</trkpt>
<trkpt lat="63.697624207" lon="-19.624704361">
<ele>159.6</ele>
<time>2012-07-26T16:19:41Z</time>
<speed>0.240000</speed>
<extensions>
<speed>0.2</speed>
<temp>0.00</temp>
<bpm>0</bpm>
<rpm>0.00</rpm>
</extensions>
</trkpt>
<trkpt lat="63.701225281" lon="-19.642940521">
<ele>151.4</ele>
<time>2012-07-26T16:20:11Z</time>
<speed>0.110000</speed>
<extensions>
<speed>0.1</speed>
<temp>0.00</temp>
<bpm>0</bpm>
<rpm>0.00</rpm>
</extensions>
</trkpt>
<trkpt lat="63.701698303" lon="-19.643260956">
<ele>151.4</ele>
<time>2012-07-26T16:21:16Z</time>
<speed>0.210000</speed>
<extensions>
<speed>0.2</speed>
<temp>0.00</temp>
<bpm>0</bpm>
<rpm>0.00</rpm>
</extensions>
</trkpt>
<trkpt lat="63.701946259" lon="-19.644813538">
<ele>155.3</ele>
<time>2012-07-26T16:22:01Z</time>
<speed>0.490000</speed>
<extensions>
<speed>0.5</speed>
<temp>0.00</temp>
<bpm>0</bpm>
<rpm>0.00</rpm>
</extensions>
</trkpt>
<trkpt lat="63.701652527" lon="-19.645214081">
<ele>151.5</ele>
<time>2012-07-26T16:22:21Z</time>
<speed>0.530000</speed>
<extensions>
<speed>0.5</speed>
<temp>0.00</temp>
<bpm>0</bpm>
<rpm>0.00</rpm>
</extensions>
</trkpt>
<trkpt lat="63.701599121" lon="-19.644960403">
<ele>151.0</ele>
<time>2012-07-26T16:24:55Z</time>
<speed>0.030000</speed>
<extensions>
<speed>0.0</speed>
<temp>0.00</temp>
<bpm>0</bpm>
<rpm>0.00</rpm>
</extensions>
</trkpt>
<trkpt lat="63.701602936" lon="-19.645324707">
<ele>151.2</ele>
<time>2012-07-26T16:26:05Z</time>
<speed>0.180000</speed>
<extensions>
<speed>0.2</speed>
<temp>0.00</temp>
<bpm>0</bpm>
<rpm>0.00</rpm>
</extensions>
</trkpt>
<trkpt lat="63.701538086" lon="-19.644893646">
<ele>151.0</ele>
<time>2012-07-26T16:27:20Z</time>
<speed>0.550000</speed>
<extensions>
<speed>0.6</speed>
<temp>0.00</temp>
<bpm>0</bpm>
<rpm>0.00</rpm>
</extensions>
</trkpt>
<trkpt lat="63.701244354" lon="-19.644548416">
<ele>150.7</ele>
<time>2012-07-26T16:28:10Z</time>
<speed>1.850000</speed>
<extensions>
<speed>1.8</speed>
<temp>0.00</temp>
<bpm>0</bpm>
<rpm>0.00</rpm>
</extensions>
</trkpt>
<trkpt lat="63.701972961" lon="-19.645446777">
<ele>156.3</ele>
<time>2012-07-26T16:44:19Z</time>
<speed>0.040000</speed>
<extensions>
<speed>0.0</speed>
<temp>0.00</temp>
<bpm>0</bpm>
<rpm>0.00</rpm>
</extensions>
</trkpt>
<trkpt lat="63.701789856" lon="-19.645174026">
<ele>152.0</ele>
<time>2012-07-26T16:45:54Z</time>
<speed>0.180000</speed>
<extensions>
<speed>0.2</speed>
<temp>0.00</temp>
<bpm>0</bpm>
<rpm>0.00</rpm>
</extensions>
</trkpt>
<trkpt lat="63.701961517" lon="-19.645315170">
<ele>157.1</ele>
<time>2012-07-26T16:46:59Z</time>
<speed>0.100000</speed>
<extensions>
<speed>0.1</speed>
<temp>0.00</temp>
<bpm>0</bpm>
<rpm>0.00</rpm>
</extensions>
</trkpt>
<trkpt lat="63.701805115" lon="-19.645069122">
<ele>151.5</ele>
<time>2012-07-26T16:49:04Z</time>
<speed>0.210000</speed>
<extensions>
<speed>0.2</speed>
<temp>0.00</temp>
<bpm>0</bpm>
<rpm>0.00</rpm>
</extensions>
</trkpt>
<trkpt lat="63.701889038" lon="-19.644817352">
<ele>153.3</ele>
<time>2012-07-26T16:51:24Z</time>
<speed>0.270000</speed>
<extensions>
<speed>0.3</speed>
<temp>0.00</temp>
<bpm>0</bpm>
<rpm>0.00</rpm>
</extensions>
</trkpt>
<trkpt lat="63.701610565" lon="-19.644798279">
<ele>150.9</ele>
<time>2012-07-26T16:56:54Z</time>
<speed>0.060000</speed>
<extensions>
<speed>0.1</speed>
<temp>0.00</temp>
<bpm>0</bpm>
<rpm>0.00</rpm>
</extensions>
</trkpt>
<trkpt lat="63.701946259" lon="-19.645025253">
<ele>155.9</ele>
<time>2012-07-26T17:00:39Z</time>
<speed>0.510000</speed>
<extensions>
<speed>0.5</speed>
<temp>0.00</temp>
<bpm>0</bpm>
<rpm>0.00</rpm>
</extensions>
</trkpt>
<trkpt lat="63.701782227" lon="-19.645133972">
<ele>151.7</ele>
<time>2012-07-26T17:02:34Z</time>
<speed>0.140000</speed>
<extensions>
<speed>0.1</speed>
<temp>0.00</temp>
<bpm>0</bpm>
<rpm>0.00</rpm>
</extensions>
</trkpt>
<trkpt lat="63.701831818" lon="-19.645330429">
<ele>153.1</ele>
<time>2012-07-26T17:03:04Z</time>
<speed>0.420000</speed>
<extensions>
<speed>0.4</speed>
<temp>0.00</temp>
<bpm>0</bpm>
<rpm>0.00</rpm>
</extensions>
</trkpt>
<trkpt lat="63.701629639" lon="-19.644990921">
<ele>151.0</ele>
<time>2012-07-26T17:06:34Z</time>
<speed>0.170000</speed>
<extensions>
<speed>0.2</speed>
<temp>0.00</temp>
<bpm>0</bpm>
<rpm>0.00</rpm>
</extensions>
</trkpt>
<trkpt lat="63.701480865" lon="-19.645631790">
<ele>150.5</ele>
<time>2012-07-26T17:08:09Z</time>
<speed>1.570000</speed>
<extensions>
<speed>1.6</speed>
<temp>0.00</temp>
<bpm>0</bpm>
<rpm>0.00</rpm>
</extensions>
</trkpt>
<trkpt lat="63.701465607" lon="-19.647682190">
<ele>148.5</ele>
<time>2012-07-26T17:08:44Z</time>
<speed>0.690000</speed>
<extensions>
<speed>0.7</speed>
<temp>0.00</temp>
<bpm>0</bpm>
<rpm>0.00</rpm>
</extensions>
</trkpt>
<trkpt lat="63.701045990" lon="-19.652223587">
<ele>147.7</ele>
<time>2012-07-26T17:10:29Z</time>
<speed>8.590000</speed>
<extensions>
<speed>8.6</speed>
<temp>0.00</temp>
<bpm>0</bpm>
<rpm>0.00</rpm>
</extensions>
</trkpt>
<trkpt lat="63.701503754" lon="-19.655727386">
<ele>146.2</ele>
<time>2012-07-26T17:11:44Z</time>
<speed>2.760000</speed>
<extensions>
<speed>2.8</speed>
<temp>0.00</temp>
<bpm>0</bpm>
<rpm>0.00</rpm>
</extensions>
</trkpt>
<trkpt lat="63.701850891" lon="-19.661111832">
<ele>145.0</ele>
<time>2012-07-26T17:13:29Z</time>
<speed>3.180000</speed>
<extensions>
<speed>3.2</speed>
<temp>0.00</temp>
<bpm>0</bpm>
<rpm>0.00</rpm>
</extensions>
</trkpt>
<trkpt lat="63.702201843" lon="-19.663322449">
<ele>144.5</ele>
<time>2012-07-26T17:14:14Z</time>
<speed>3.150000</speed>
<extensions>
<speed>3.2</speed>
<temp>0.00</temp>
<bpm>0</bpm>
<rpm>0.00</rpm>
</extensions>
</trkpt>
<trkpt lat="63.702129364" lon="-19.664770126">
<ele>144.5</ele>
<time>2012-07-26T17:14:39Z</time>
<speed>2.720000</speed>
<extensions>
<speed>2.7</speed>
<temp>0.00</temp>
<bpm>0</bpm>
<rpm>0.00</rpm>
</extensions>
</trkpt>
<trkpt lat="63.702339172" lon="-19.667858124">
<ele>143.9</ele>
<time>2012-07-26T17:15:29Z</time>
<speed>2.430000</speed>
<extensions>
<speed>2.4</speed>
<temp>0.00</temp>
<bpm>0</bpm>
<rpm>0.00</rpm>
</extensions>
</trkpt>
<trkpt lat="63.702281952" lon="-19.672796249">
<ele>142.7</ele>
<time>2012-07-26T17:16:59Z</time>
<speed>1.130000</speed>
<extensions>
<speed>1.1</speed>
<temp>0.00</temp>
<bpm>0</bpm>
<rpm>0.00</rpm>
</extensions>
</trkpt>
<trkpt lat="63.702495575" lon="-19.675710678">
<ele>141.1</ele>
<time>2012-07-26T17:18:04Z</time>
<speed>2.690000</speed>
<extensions>
<speed>2.7</speed>
<temp>0.00</temp>
<bpm>0</bpm>
<rpm>0.00</rpm>
</extensions>
</trkpt>
<trkpt lat="63.702285767" lon="-19.680204391">
<ele>139.2</ele>
<time>2012-07-26T17:20:24Z</time>
<speed>5.160000</speed>
<extensions>
<speed>5.2</speed>
<temp>0.00</temp>
<bpm>0</bpm>
<rpm>0.00</rpm>
</extensions>
</trkpt>
<trkpt lat="63.702583313" lon="-19.681608200">
<ele>139.2</ele>
<time>2012-07-26T17:20:49Z</time>
<speed>2.800000</speed>
<extensions>
<speed>2.8</speed>
<temp>0.00</temp>
<bpm>0</bpm>
<rpm>0.00</rpm>
</extensions>
</trkpt>
<trkpt lat="63.703609467" lon="-19.684673309">
<ele>137.4</ele>
<time>2012-07-26T17:21:54Z</time>
<speed>2.820000</speed>
<extensions>
<speed>2.8</speed>
<temp>0.00</temp>
<bpm>0</bpm>
<rpm>0.00</rpm>
</extensions>
</trkpt>
<trkpt lat="63.704280853" lon="-19.688016891">
<ele>136.3</ele>
<time>2012-07-26T17:22:54Z</time>
<speed>2.350000</speed>
<extensions>
<speed>2.4</speed>
<temp>0.00</temp>
<bpm>0</bpm>
<rpm>0.00</rpm>
</extensions>
</trkpt>
<trkpt lat="63.705158234" lon="-19.690803528">
<ele>134.8</ele>
<time>2012-07-26T17:23:59Z</time>
<speed>3.100000</speed>
<extensions>
<speed>3.1</speed>
<temp>0.00</temp>
<bpm>0</bpm>
<rpm>0.00</rpm>
</extensions>
</trkpt>
<trkpt lat="63.705528259" lon="-19.698371887">
<ele>132.5</ele>
<time>2012-07-26T17:26:19Z</time>
<speed>2.780000</speed>
<extensions>
<speed>2.8</speed>
<temp>0.00</temp>
<bpm>0</bpm>
<rpm>0.00</rpm>
</extensions>
</trkpt>
<trkpt lat="63.705898285" lon="-19.701160431">
<ele>132.1</ele>
<time>2012-07-26T17:27:14Z</time>
<speed>3.090000</speed>
<extensions>
<speed>3.1</speed>
<temp>0.00</temp>
<bpm>0</bpm>
<rpm>0.00</rpm>
</extensions>
</trkpt>
<trkpt lat="63.706912994" lon="-19.703626633">
<ele>131.1</ele>
<time>2012-07-26T17:28:04Z</time>
<speed>3.220000</speed>
<extensions>
<speed>3.2</speed>
<temp>0.00</temp>
<bpm>0</bpm>
<rpm>0.00</rpm>
</extensions>
</trkpt>
<trkpt lat="63.707683563" lon="-19.707450867">
<ele>129.7</ele>
<time>2012-07-26T17:29:09Z</time>
<speed>3.250000</speed>
<extensions>
<speed>3.2</speed>
<temp>0.00</temp>
<bpm>0</bpm>
<rpm>0.00</rpm>
</extensions>
</trkpt>
<trkpt lat="63.707580566" lon="-19.709848404">
<ele>128.7</ele>
<time>2012-07-26T17:29:54Z</time>
<speed>2.420000</speed>
<extensions>
<speed>2.4</speed>
<temp>0.00</temp>
<bpm>0</bpm>
<rpm>0.00</rpm>
</extensions>
</trkpt>
<trkpt lat="63.708305359" lon="-19.715288162">
<ele>126.6</ele>
<time>2012-07-26T17:35:09Z</time>
<speed>2.900000</speed>
<extensions>
<speed>2.9</speed>
<temp>0.00</temp>
<bpm>0</bpm>
<rpm>0.00</rpm>
</extensions>
</trkpt>
<trkpt lat="63.708370209" lon="-19.722030640">
<ele>124.7</ele>
<time>2012-07-26T17:36:44Z</time>
<speed>3.490000</speed>
<extensions>
<speed>3.5</speed>
<temp>0.00</temp>
<bpm>0</bpm>
<rpm>0.00</rpm>
</extensions>
</trkpt>
<trkpt lat="63.708801270" lon="-19.725914001">
<ele>123.3</ele>
<time>2012-07-26T17:37:39Z</time>
<speed>3.310000</speed>
<extensions>
<speed>3.3</speed>
<temp>0.00</temp>
<bpm>0</bpm>
<rpm>0.00</rpm>
</extensions>
</trkpt>
<trkpt lat="63.709568024" lon="-19.730321884">
<ele>121.3</ele>
<time>2012-07-26T17:38:49Z</time>
<speed>2.470000</speed>
<extensions>
<speed>2.5</speed>
<temp>0.00</temp>
<bpm>0</bpm>
<rpm>0.00</rpm>
</extensions>
</trkpt>
<trkpt lat="63.709762573" lon="-19.732717514">
<ele>120.4</ele>
<time>2012-07-26T17:39:34Z</time>
<speed>3.030000</speed>
<extensions>
<speed>3.0</speed>
<temp>0.00</temp>
<bpm>0</bpm>
<rpm>0.00</rpm>
</extensions>
</trkpt>
<trkpt lat="63.710323334" lon="-19.732553482">
<ele>120.5</ele>
<time>2012-07-26T17:40:29Z</time>
<speed>0.900000</speed>
<extensions>
<speed>0.9</speed>
<temp>0.00</temp>
<bpm>0</bpm>
<rpm>0.00</rpm>
</extensions>
</trkpt>
<trkpt lat="63.710330963" lon="-19.733249664">
<ele>120.5</ele>
<time>2012-07-26T17:41:19Z</time>
<speed>1.030000</speed>
<extensions>
<speed>1.0</speed>
<temp>0.00</temp>
<bpm>0</bpm>
<rpm>0.00</rpm>
</extensions>
</trkpt>
<trkpt lat="63.711132050" lon="-19.733816147">
<ele>120.2</ele>
<time>2012-07-26T17:42:29Z</time>
<speed>1.980000</speed>
<extensions>
<speed>2.0</speed>
<temp>0.00</temp>
<bpm>0</bpm>
<rpm>0.00</rpm>
</extensions>
</trkpt>
<trkpt lat="63.712806702" lon="-19.736400604">
<ele>118.9</ele>
<time>2012-07-26T17:43:59Z</time>
<speed>2.710000</speed>
<extensions>
<speed>2.7</speed>
<temp>0.00</temp>
<bpm>0</bpm>
<rpm>0.00</rpm>
</extensions>
</trkpt>
<trkpt lat="63.712993622" lon="-19.737007141">
<ele>118.6</ele>
<time>2012-07-26T17:44:14Z</time>
<speed>2.540000</speed>
<extensions>
<speed>2.5</speed>
<temp>0.00</temp>
<bpm>0</bpm>
<rpm>0.00</rpm>
</extensions>
</trkpt>
<trkpt lat="63.712898254" lon="-19.739770889">
<ele>117.6</ele>
<time>2012-07-26T17:44:49Z</time>
<speed>4.580000</speed>
<extensions>
<speed>4.6</speed>
<temp>0.00</temp>
<bpm>0</bpm>
<rpm>0.00</rpm>
</extensions>
</trkpt>
<trkpt lat="63.713027954" lon="-19.749486923">
<ele>114.3</ele>
<time>2012-07-26T17:46:19Z</time>
<speed>4.730000</speed>
<extensions>
<speed>4.7</speed>
<temp>0.00</temp>
<bpm>0</bpm>
<rpm>0.00</rpm>
</extensions>
</trkpt>
<trkpt lat="63.714168549" lon="-19.815059662">
<ele>94.8</ele>
<time>2012-07-26T18:01:24Z</time>
<speed>3.930000</speed>
<extensions>
<speed>3.9</speed>
<temp>0.00</temp>
<bpm>0</bpm>
<rpm>0.00</rpm>
</extensions>
</trkpt>
<trkpt lat="63.713760376" lon="-19.823375702">
<ele>93.2</ele>
<time>2012-07-26T18:03:09Z</time>
<speed>3.700000</speed>
<extensions>
<speed>3.7</speed>
<temp>0.00</temp>
<bpm>0</bpm>
<rpm>0.00</rpm>
</extensions>
</trkpt>
<trkpt lat="63.713569641" lon="-19.824117661">
<ele>92.8</ele>
<time>2012-07-26T18:03:19Z</time>
<speed>4.320000</speed>
<extensions>
<speed>4.3</speed>
<temp>0.00</temp>
<bpm>0</bpm>
<rpm>0.00</rpm>
</extensions>
</trkpt>
<trkpt lat="63.712379456" lon="-19.825908661">
<ele>92.2</ele>
<time>2012-07-26T18:04:04Z</time>
<speed>2.440000</speed>
<extensions>
<speed>2.4</speed>
<temp>0.00</temp>
<bpm>0</bpm>
<rpm>0.00</rpm>
</extensions>
</trkpt>
<trkpt lat="63.712123871" lon="-19.827392578">
<ele>91.7</ele>
<time>2012-07-26T18:04:29Z</time>
<speed>2.300000</speed>
<extensions>
<speed>2.3</speed>
<temp>0.00</temp>
<bpm>0</bpm>
<rpm>0.00</rpm>
</extensions>
</trkpt>
<trkpt lat="63.712150574" lon="-19.829708099">
<ele>91.0</ele>
<time>2012-07-26T18:05:24Z</time>
<speed>5.060000</speed>
<extensions>
<speed>5.1</speed>
<temp>0.00</temp>
<bpm>0</bpm>
<rpm>0.00</rpm>
</extensions>
</trkpt>
<trkpt lat="63.712802887" lon="-19.838317871">
<ele>88.5</ele>
<time>2012-07-26T18:06:54Z</time>
<speed>6.090000</speed>
<extensions>
<speed>6.1</speed>
<temp>0.00</temp>
<bpm>0</bpm>
<rpm>0.00</rpm>
</extensions>
</trkpt>
<trkpt lat="63.713485718" lon="-19.852052689">
<ele>84.5</ele>
<time>2012-07-26T18:08:49Z</time>
<speed>6.110000</speed>
<extensions>
<speed>6.1</speed>
<temp>0.00</temp>
<bpm>0</bpm>
<rpm>0.00</rpm>
</extensions>
</trkpt>
<trkpt lat="63.715759277" lon="-19.878429413">
<ele>77.1</ele>
<time>2012-07-26T18:12:19Z</time>
<speed>0.130000</speed>
<extensions>
<speed>0.1</speed>
<temp>0.00</temp>
<bpm>0</bpm>
<rpm>0.00</rpm>
</extensions>
</trkpt>
<trkpt lat="63.716964722" lon="-19.895011902">
<ele>73.6</ele>
<time>2012-07-26T18:15:49Z</time>
<speed>3.020000</speed>
<extensions>
<speed>3.0</speed>
<temp>0.00</temp>
<bpm>0</bpm>
<rpm>0.00</rpm>
</extensions>
</trkpt>
<trkpt lat="63.719219208" lon="-19.892786026">
<ele>76.5</ele>
<time>2012-07-26T18:17:39Z</time>
<speed>2.610000</speed>
<extensions>
<speed>2.6</speed>
<temp>0.00</temp>
<bpm>0</bpm>
<rpm>0.00</rpm>
</extensions>
</trkpt>
<trkpt lat="63.720382690" lon="-19.892738342">
<ele>77.5</ele>
<time>2012-07-26T18:19:09Z</time>
<speed>0.020000</speed>
<extensions>
<speed>0.0</speed>
<temp>0.00</temp>
<bpm>0</bpm>
<rpm>0.00</rpm>
</extensions>
</trkpt>
<trkpt lat="63.719097137" lon="-19.892887115">
<ele>75.9</ele>
<time>2012-07-26T18:28:14Z</time>
<speed>3.090000</speed>
<extensions>
<speed>3.1</speed>
<temp>0.00</temp>
<bpm>0</bpm>
<rpm>0.00</rpm>
</extensions>
</trkpt>
<trkpt lat="63.717086792" lon="-19.895088196">
<ele>73.7</ele>
<time>2012-07-26T18:29:34Z</time>
<speed>1.740000</speed>
<extensions>
<speed>1.7</speed>
<temp>0.00</temp>
<bpm>0</bpm>
<rpm>0.00</rpm>
</extensions>
</trkpt>
<trkpt lat="63.716995239" lon="-19.895483017">
<ele>73.5</ele>
<time>2012-07-26T18:30:09Z</time>
<speed>2.770000</speed>
<extensions>
<speed>2.8</speed>
<temp>0.00</temp>
<bpm>0</bpm>
<rpm>0.00</rpm>
</extensions>
</trkpt>
<trkpt lat="63.718009949" lon="-19.905382156">
<ele>70.7</ele>
<time>2012-07-26T18:31:39Z</time>
<speed>5.670000</speed>
<extensions>
<speed>5.7</speed>
<temp>0.00</temp>
<bpm>0</bpm>
<rpm>0.00</rpm>
</extensions>
</trkpt>
<trkpt lat="63.719806671" lon="-19.918247223">
<ele>67.5</ele>
<time>2012-07-26T18:34:39Z</time>
<speed>4.810000</speed>
<extensions>
<speed>4.8</speed>
<temp>0.00</temp>
<bpm>0</bpm>
<rpm>0.00</rpm>
</extensions>
</trkpt>
<trkpt lat="63.723220825" lon="-19.948781967">
<ele>59.6</ele>
<time>2012-07-26T18:39:19Z</time>
<speed>5.830000</speed>
<extensions>
<speed>5.8</speed>
<temp>0.00</temp>
<bpm>0</bpm>
<rpm>0.00</rpm>
</extensions>
</trkpt>
<trkpt lat="63.723461151" lon="-19.953094482">
<ele>59.2</ele>
<time>2012-07-26T18:39:59Z</time>
<speed>5.470000</speed>
<extensions>
<speed>5.5</speed>
<temp>0.00</temp>
<bpm>0</bpm>
<rpm>0.00</rpm>
</extensions>
</trkpt>
<trkpt lat="63.723560333" lon="-19.965326309">
<ele>56.7</ele>
<time>2012-07-26T18:42:04Z</time>
<speed>5.350000</speed>
<extensions>
<speed>5.4</speed>
<temp>0.00</temp>
<bpm>0</bpm>
<rpm>0.00</rpm>
</extensions>
</trkpt>
<trkpt lat="63.724040985" lon="-19.971847534">
<ele>55.6</ele>
<time>2012-07-26T18:42:59Z</time>
<speed>6.520000</speed>
<extensions>
<speed>6.5</speed>
<temp>0.00</temp>
<bpm>0</bpm>
<rpm>0.00</rpm>
</extensions>
</trkpt>
<trkpt lat="63.725074768" lon="-19.977775574">
<ele>58.7</ele>
<time>2012-07-26T18:44:04Z</time>
<speed>3.190000</speed>
<extensions>
<speed>3.2</speed>
<temp>0.00</temp>
<bpm>0</bpm>
<rpm>0.00</rpm>
</extensions>
</trkpt>
<trkpt lat="63.726825714" lon="-19.984914780">
<ele>70.5</ele>
<time>2012-07-26T18:46:24Z</time>
<speed>3.840000</speed>
<extensions>
<speed>3.8</speed>
<temp>0.00</temp>
<bpm>0</bpm>
<rpm>0.00</rpm>
</extensions>
</trkpt>
<trkpt lat="63.727420807" lon="-19.988327026">
<ele>69.9</ele>
<time>2012-07-26T18:47:04Z</time>
<speed>5.430000</speed>
<extensions>
<speed>5.4</speed>
<temp>0.00</temp>
<bpm>0</bpm>
<rpm>0.00</rpm>
</extensions>
</trkpt>
<trkpt lat="63.727848053" lon="-19.991945267">
<ele>69.9</ele>
<time>2012-07-26T18:47:44Z</time>
<speed>3.910000</speed>
<extensions>
<speed>3.9</speed>
<temp>0.00</temp>
<bpm>0</bpm>
<rpm>0.00</rpm>
</extensions>
</trkpt>
<trkpt lat="63.730319977" lon="-20.027997971">
<ele>65.3</ele>
<time>2012-07-26T18:55:34Z</time>
<speed>0.060000</speed>
<extensions>
<speed>0.1</speed>
<temp>0.00</temp>
<bpm>0</bpm>
<rpm>0.00</rpm>
</extensions>
</trkpt>
<trkpt lat="63.730133057" lon="-20.027751923">
<ele>64.6</ele>
<time>2012-07-26T19:01:29Z</time>
<speed>0.270000</speed>
<extensions>
<speed>0.3</speed>
<temp>0.00</temp>
<bpm>0</bpm>
<rpm>0.00</rpm>
</extensions>
</trkpt>
<trkpt lat="63.730289459" lon="-20.028099060">
<ele>65.1</ele>
<time>2012-07-26T19:02:04Z</time>
<speed>2.440000</speed>
<extensions>
<speed>2.4</speed>
<temp>0.00</temp>
<bpm>0</bpm>
<rpm>0.00</rpm>
</extensions>
</trkpt>
<trkpt lat="63.730422974" lon="-20.029796600">
<ele>64.2</ele>
<time>2012-07-26T19:02:24Z</time>
<speed>5.520000</speed>
<extensions>
<speed>5.5</speed>
<temp>0.00</temp>
<bpm>0</bpm>
<rpm>0.00</rpm>
</extensions>
</trkpt>
<trkpt lat="63.731689453" lon="-20.048664093">
<ele>47.7</ele>
<time>2012-07-26T19:06:04Z</time>
<speed>6.410000</speed>
<extensions>
<speed>6.4</speed>
<temp>0.00</temp>
<bpm>0</bpm>
<rpm>0.00</rpm>
</extensions>
</trkpt>
<trkpt lat="63.734035492" lon="-20.075750351">
<ele>46.5</ele>
<time>2012-07-26T19:11:04Z</time>
<speed>4.410000</speed>
<extensions>
<speed>4.4</speed>
<temp>0.00</temp>
<bpm>0</bpm>
<rpm>0.00</rpm>
</extensions>
</trkpt>
<trkpt lat="63.734115601" lon="-20.078195572">
<ele>45.6</ele>
<time>2012-07-26T19:11:29Z</time>
<speed>5.290000</speed>
<extensions>
<speed>5.3</speed>
<temp>0.00</temp>
<bpm>0</bpm>
<rpm>0.00</rpm>
</extensions>
</trkpt>
<trkpt lat="63.733985901" lon="-20.081108093">
<ele>45.2</ele>
<time>2012-07-26T19:11:59Z</time>
<speed>5.040000</speed>
<extensions>
<speed>5.0</speed>
<temp>0.00</temp>
<bpm>0</bpm>
<rpm>0.00</rpm>
</extensions>
</trkpt>
<trkpt lat="63.733169556" lon="-20.088268280">
<ele>45.7</ele>
<time>2012-07-26T19:13:19Z</time>
<speed>5.790000</speed>
<extensions>
<speed>5.8</speed>
<temp>0.00</temp>
<bpm>0</bpm>
<rpm>0.00</rpm>
</extensions>
</trkpt>
<trkpt lat="63.734165192" lon="-20.104640961">
<ele>51.8</ele>
<time>2012-07-26T19:16:29Z</time>
<speed>3.880000</speed>
<extensions>
<speed>3.9</speed>
<temp>0.00</temp>
<bpm>0</bpm>
<rpm>0.00</rpm>
</extensions>
</trkpt>
<trkpt lat="63.733573914" lon="-20.109577179">
<ele>51.5</ele>
<time>2012-07-26T19:17:24Z</time>
<speed>7.460000</speed>
<extensions>
<speed>7.5</speed>
<temp>0.00</temp>
<bpm>0</bpm>
<rpm>0.00</rpm>
</extensions>
</trkpt>
<trkpt lat="63.733207703" lon="-20.121318817">
<ele>42.1</ele>
<time>2012-07-26T19:18:54Z</time>
<speed>5.190000</speed>
<extensions>
<speed>5.2</speed>
<temp>0.00</temp>
<bpm>0</bpm>
<rpm>0.00</rpm>
</extensions>
</trkpt>
<trkpt lat="63.735248566" lon="-20.153064728">
<ele>37.6</ele>
<time>2012-07-26T19:24:24Z</time>
<speed>4.370000</speed>
<extensions>
<speed>4.4</speed>
<temp>0.00</temp>
<bpm>0</bpm>
<rpm>0.00</rpm>
</extensions>
</trkpt>
<trkpt lat="63.736354828" lon="-20.159212112">
<ele>36.6</ele>
<time>2012-07-26T19:25:44Z</time>
<speed>1.710000</speed>
<extensions>
<speed>1.7</speed>
<temp>0.00</temp>
<bpm>0</bpm>
<rpm>0.00</rpm>
</extensions>
</trkpt>
<trkpt lat="63.741039276" lon="-20.177278519">
<ele>38.3</ele>
<time>2012-07-26T19:29:59Z</time>
<speed>3.450000</speed>
<extensions>
<speed>3.5</speed>
<temp>0.00</temp>
<bpm>0</bpm>
<rpm>0.00</rpm>
</extensions>
</trkpt>
<trkpt lat="63.742229462" lon="-20.183673859">
<ele>38.8</ele>
<time>2012-07-26T19:31:24Z</time>
<speed>4.390000</speed>
<extensions>
<speed>4.4</speed>
<temp>0.00</temp>
<bpm>0</bpm>
<rpm>0.00</rpm>
</extensions>
</trkpt>
<trkpt lat="63.744125366" lon="-20.191555023">
<ele>42.4</ele>
<time>2012-07-26T19:33:39Z</time>
<speed>2.750000</speed>
<extensions>
<speed>2.7</speed>
<temp>0.00</temp>
<bpm>0</bpm>
<rpm>0.00</rpm>
</extensions>
</trkpt>
<trkpt lat="63.744861603" lon="-20.196113586">
<ele>51.1</ele>
<time>2012-07-26T19:35:04Z</time>
<speed>3.480000</speed>
<extensions>
<speed>3.5</speed>
<temp>0.00</temp>
<bpm>0</bpm>
<rpm>0.00</rpm>
</extensions>
</trkpt>
<trkpt lat="63.745563507" lon="-20.198589325">
<ele>52.6</ele>
<time>2012-07-26T19:38:29Z</time>
<speed>4.820000</speed>
<extensions>
<speed>4.8</speed>
<temp>0.00</temp>
<bpm>0</bpm>
<rpm>0.00</rpm>
</extensions>
</trkpt>
<trkpt lat="63.748500824" lon="-20.206901550">
<ele>37.0</ele>
<time>2012-07-26T19:39:44Z</time>
<speed>5.420000</speed>
<extensions>
<speed>5.4</speed>
<temp>0.00</temp>
<bpm>0</bpm>
<rpm>0.00</rpm>
</extensions>
</trkpt>
<trkpt lat="63.750766754" lon="-20.215089798">
<ele>34.6</ele>
<time>2012-07-26T19:41:19Z</time>
<speed>5.450000</speed>
<extensions>
<speed>5.5</speed>
<temp>0.00</temp>
<bpm>0</bpm>
<rpm>0.00</rpm>
</extensions>
</trkpt>
<trkpt lat="63.751224518" lon="-20.222711563">
<ele>34.5</ele>
<time>2012-07-26T19:42:39Z</time>
<speed>2.440000</speed>
<extensions>
<speed>2.4</speed>
<temp>0.00</temp>
<bpm>0</bpm>
<rpm>0.00</rpm>
</extensions>
</trkpt>
<trkpt lat="63.751018524" lon="-20.224664688">
<ele>34.0</ele>
<time>2012-07-26T19:43:09Z</time>
<speed>0.250000</speed>
<extensions>
<speed>0.2</speed>
<temp>0.00</temp>
<bpm>0</bpm>
<rpm>0.00</rpm>
</extensions>
</trkpt>
<trkpt lat="63.750385284" lon="-20.225296021">
<ele>33.1</ele>
<time>2012-07-26T19:43:49Z</time>
<speed>0.100000</speed>
<extensions>
<speed>0.1</speed>
<temp>0.00</temp>
<bpm>0</bpm>
<rpm>0.00</rpm>
</extensions>
</trkpt>
<trkpt lat="63.750656128" lon="-20.224822998">
<ele>33.0</ele>
<time>2012-07-26T19:44:09Z</time>
<speed>3.000000</speed>
<extensions>
<speed>3.0</speed>
<temp>0.00</temp>
<bpm>0</bpm>
<rpm>0.00</rpm>
</extensions>
</trkpt>
<trkpt lat="63.750926971" lon="-20.224832535">
<ele>33.8</ele>
<time>2012-07-26T19:44:44Z</time>
<speed>1.530000</speed>
<extensions>
<speed>1.5</speed>
<temp>0.00</temp>
<bpm>0</bpm>
<rpm>0.00</rpm>
</extensions>
</trkpt>
<trkpt lat="63.751026154" lon="-20.222908020">
<ele>33.6</ele>
<time>2012-07-26T19:45:29Z</time>
<speed>2.110000</speed>
<extensions>
<speed>2.1</speed>
<temp>0.00</temp>
<bpm>0</bpm>
<rpm>0.00</rpm>
</extensions>
</trkpt>
<trkpt lat="63.751182556" lon="-20.223112106">
<ele>34.3</ele>
<time>2012-07-26T19:46:44Z</time>
<speed>1.380000</speed>
<extensions>
<speed>1.4</speed>
<temp>0.00</temp>
<bpm>0</bpm>
<rpm>0.00</rpm>
</extensions>
</trkpt>
<trkpt lat="63.751560211" lon="-20.222766876">
<ele>34.1</ele>
<time>2012-07-26T19:47:04Z</time>
<speed>2.530000</speed>
<extensions>
<speed>2.5</speed>
<temp>0.00</temp>
<bpm>0</bpm>
<rpm>0.00</rpm>
</extensions>
</trkpt>
<trkpt lat="63.751285553" lon="-20.223026276">
<ele>34.5</ele>
<time>2012-07-26T19:47:14Z</time>
<speed>3.600000</speed>
<extensions>
<speed>3.6</speed>
<temp>0.00</temp>
<bpm>0</bpm>
<rpm>0.00</rpm>
</extensions>
</trkpt>
<trkpt lat="63.751255035" lon="-20.223407745">
<ele>34.1</ele>
<time>2012-07-26T19:47:19Z</time>
<speed>4.450000</speed>
<extensions>
<speed>4.5</speed>
<temp>0.00</temp>
<bpm>0</bpm>
<rpm>0.00</rpm>
</extensions>
</trkpt>
<trkpt lat="63.751953125" lon="-20.232999802">
<ele>32.5</ele>
<time>2012-07-26T19:54:09Z</time>
<speed>5.960000</speed>
<extensions>
<speed>6.0</speed>
<temp>0.00</temp>
<bpm>0</bpm>
<rpm>0.00</rpm>
</extensions>
</trkpt>
<trkpt lat="63.751815796" lon="-20.234062195">
<ele>31.1</ele>
<time>2012-07-26T19:54:19Z</time>
<speed>5.490000</speed>
<extensions>
<speed>5.5</speed>
<temp>0.00</temp>
<bpm>0</bpm>
<rpm>0.00</rpm>
</extensions>
</trkpt>
<trkpt lat="63.751258850" lon="-20.235544205">
<ele>30.4</ele>
<time>2012-07-26T19:54:44Z</time>
<speed>1.010000</speed>
<extensions>
<speed>1.0</speed>
<temp>0.00</temp>
<bpm>0</bpm>
<rpm>0.00</rpm>
</extensions>
</trkpt>
<trkpt lat="63.749336243" lon="-20.232477188">
<ele>31.3</ele>
<time>2012-07-26T19:56:19Z</time>
<speed>2.460000</speed>
<extensions>
<speed>2.5</speed>
<temp>0.00</temp>
<bpm>0</bpm>
<rpm>0.00</rpm>
</extensions>
</trkpt>
<trkpt lat="63.750411987" lon="-20.233280182">
<ele>31.7</ele>
<time>2012-07-26T19:56:59Z</time>
<speed>2.740000</speed>
<extensions>
<speed>2.7</speed>
<temp>0.00</temp>
<bpm>0</bpm>
<rpm>0.00</rpm>
</extensions>
</trkpt>
<trkpt lat="63.750621796" lon="-20.233001709">
<ele>31.7</ele>
<time>2012-07-26T19:57:14Z</time>
<speed>1.240000</speed>
<extensions>
<speed>1.2</speed>
<temp>0.00</temp>
<bpm>0</bpm>
<rpm>0.00</rpm>
</extensions>
</trkpt>
<trkpt lat="63.750534058" lon="-20.233125687">
<ele>31.8</ele>
<time>2012-07-26T19:57:24Z</time>
<speed>1.120000</speed>
<extensions>
<speed>1.1</speed>
<temp>0.00</temp>
<bpm>0</bpm>
<rpm>0.00</rpm>
</extensions>
</trkpt>
<trkpt lat="63.750461578" lon="-20.232799530">
<ele>31.8</ele>
<time>2012-07-26T19:58:29Z</time>
<speed>0.290000</speed>
<extensions>
<speed>0.3</speed>
<temp>0.00</temp>
<bpm>0</bpm>
<rpm>0.00</rpm>
</extensions>
</trkpt>
<trkpt lat="63.750957489" lon="-20.232826233">
<ele>31.5</ele>
<time>2012-07-26T19:58:49Z</time>
<speed>2.700000</speed>
<extensions>
<speed>2.7</speed>
<temp>0.00</temp>
<bpm>0</bpm>
<rpm>0.00</rpm>
</extensions>
</trkpt>
<trkpt lat="63.751525879" lon="-20.232173920">
<ele>32.5</ele>
<time>2012-07-26T19:59:49Z</time>
<speed>0.230000</speed>
<extensions>
<speed>0.2</speed>
<temp>0.00</temp>
<bpm>0</bpm>
<rpm>0.00</rpm>
</extensions>
</trkpt>
<trkpt lat="63.750545502" lon="-20.233102798">
<ele>31.8</ele>
<time>2012-07-26T20:00:29Z</time>
<speed>3.250000</speed>
<extensions>
<speed>3.2</speed>
<temp>0.00</temp>
<bpm>0</bpm>
<rpm>0.00</rpm>
</extensions>
</trkpt>
<trkpt lat="63.750511169" lon="-20.233398438">
<ele>31.5</ele>
<time>2012-07-26T20:00:34Z</time>
<speed>2.400000</speed>
<extensions>
<speed>2.4</speed>
<temp>0.00</temp>
<bpm>0</bpm>
<rpm>0.00</rpm>
</extensions>
</trkpt>
<trkpt lat="63.750843048" lon="-20.233778000">
<ele>31.4</ele>
<time>2012-07-26T20:00:49Z</time>
<speed>3.050000</speed>
<extensions>
<speed>3.0</speed>
<temp>0.00</temp>
<bpm>0</bpm>
<rpm>0.00</rpm>
</extensions>
</trkpt>
<trkpt lat="63.751380920" lon="-20.235069275">
<ele>31.3</ele>
<time>2012-07-26T20:01:14Z</time>
<speed>3.240000</speed>
<extensions>
<speed>3.2</speed>
<temp>0.00</temp>
<bpm>0</bpm>
<rpm>0.00</rpm>
</extensions>
</trkpt>
<trkpt lat="63.751369476" lon="-20.235397339">
<ele>30.8</ele>
<time>2012-07-26T20:01:19Z</time>
<speed>3.210000</speed>
<extensions>
<speed>3.2</speed>
<temp>0.00</temp>
<bpm>0</bpm>
<rpm>0.00</rpm>
</extensions>
</trkpt>
<trkpt lat="63.750667572" lon="-20.237150192">
<ele>30.2</ele>
<time>2012-07-26T20:01:54Z</time>
<speed>5.300000</speed>
<extensions>
<speed>5.3</speed>
<temp>0.00</temp>
<bpm>0</bpm>
<rpm>0.00</rpm>
</extensions>
</trkpt>
<trkpt lat="63.750293732" lon="-20.239025116">
<ele>29.7</ele>
<time>2012-07-26T20:02:14Z</time>
<speed>3.590000</speed>
<extensions>
<speed>3.6</speed>
<temp>0.00</temp>
<bpm>0</bpm>
<rpm>0.00</rpm>
</extensions>
</trkpt>
<trkpt lat="63.749946594" lon="-20.238433838">
<ele>29.6</ele>
<time>2012-07-26T20:02:29Z</time>
<speed>2.260000</speed>
<extensions>
<speed>2.3</speed>
<temp>0.00</temp>
<bpm>0</bpm>
<rpm>0.00</rpm>
</extensions>
</trkpt>
<trkpt lat="63.749710083" lon="-20.239967346">
<ele>30.1</ele>
<time>2012-07-26T20:02:54Z</time>
<speed>1.300000</speed>
<extensions>
<speed>1.3</speed>
<temp>0.00</temp>
<bpm>0</bpm>
<rpm>0.00</rpm>
</extensions>
</trkpt>
<trkpt lat="63.749851227" lon="-20.238515854">
<ele>29.7</ele>
<time>2012-07-26T20:03:34Z</time>
<speed>2.020000</speed>
<extensions>
<speed>2.0</speed>
<temp>0.00</temp>
<bpm>0</bpm>
<rpm>0.00</rpm>
</extensions>
</trkpt>
<trkpt lat="63.750301361" lon="-20.238971710">
<ele>29.7</ele>
<time>2012-07-26T20:06:49Z</time>
<speed>1.040000</speed>
<extensions>
<speed>1.0</speed>
<temp>0.00</temp>
<bpm>0</bpm>
<rpm>0.00</rpm>
</extensions>
</trkpt>
<trkpt lat="63.750591278" lon="-20.237329483">
<ele>30.0</ele>
<time>2012-07-26T20:08:24Z</time>
<speed>1.460000</speed>
<extensions>
<speed>1.5</speed>
<temp>0.00</temp>
<bpm>0</bpm>
<rpm>0.00</rpm>
</extensions>
</trkpt>
<trkpt lat="63.750255585" lon="-20.239038467">
<ele>29.7</ele>
<time>2012-07-26T20:08:54Z</time>
<speed>3.880000</speed>
<extensions>
<speed>3.9</speed>
<temp>0.00</temp>
<bpm>0</bpm>
<rpm>0.00</rpm>
</extensions>
</trkpt>
<trkpt lat="63.749855042" lon="-20.238824844">
<ele>29.6</ele>
<time>2012-07-26T20:09:09Z</time>
<speed>2.160000</speed>
<extensions>
<speed>2.2</speed>
<temp>0.00</temp>
<bpm>0</bpm>
<rpm>0.00</rpm>
</extensions>
</trkpt>
<trkpt lat="63.749694824" lon="-20.239915848">
<ele>30.1</ele>
<time>2012-07-26T20:09:39Z</time>
<speed>1.670000</speed>
<extensions>
<speed>1.7</speed>
<temp>0.00</temp>
<bpm>0</bpm>
<rpm>0.00</rpm>
</extensions>
</trkpt>
<trkpt lat="63.749565125" lon="-20.240009308">
<ele>30.2</ele>
<time>2012-07-26T22:12:54Z</time>
<speed>0.020000</speed>
<extensions>
<speed>0.0</speed>
<temp>0.00</temp>
<bpm>0</bpm>
<rpm>0.00</rpm>
</extensions>
</trkpt>
</trkseg>
</trk>
</gpx>